<?xml version="1.0" encoding="UTF-8" standalone="no" ?><gpx xmlns="http://www.topografix.com/GPX/1/1" xmlns:gpxx="http://www.garmin.com/xmlschemas/GpxExtensions/v3" xmlns:wptx1="http://www.garmin.com/xmlschemas/WaypointExtension/v1" xmlns:gpxtpx="http://www.garmin.com/xmlschemas/TrackPointExtension/v1" creator="Dakota 20" version="1.1" xmlns:xsi="http://www.w3.org/2001/XMLSchema-instance" xsi:schemaLocation="http://www.topografix.com/GPX/1/1 http://www.topografix.com/GPX/1/1/gpx.xsd http://www.garmin.com/xmlschemas/GpxExtensions/v3 http://www8.garmin.com/xmlschemas/GpxExtensionsv3.xsd http://www.garmin.com/xmlschemas/WaypointExtension/v1 http://www8.garmin.com/xmlschemas/WaypointExtensionv1.xsd http://www.garmin.com/xmlschemas/TrackPointExtension/v1 http://www.garmin.com/xmlschemas/TrackPointExtensionv1.xsd"><metadata><link href="http://www.garmin.com"><text>Garmin International</text></link><time>2011-12-07T20:26:00Z</time></metadata><trk><name>Current Track: 07 DEC 2011 09:58</name><extensions><gpxx:TrackExtension><gpxx:DisplayColor>Black</gpxx:DisplayColor></gpxx:TrackExtension></extensions><trkseg><trkpt lat="52.0274734497" lon="-2.1411841549"><ele>16.00</ele><time>2011-12-07T09:58:05Z</time></trkpt><trkpt lat="52.0274759643" lon="-2.1411813051"><ele>16.00</ele><time>2011-12-07T09:58:41Z</time></trkpt><trkpt lat="52.0275346376" lon="-2.1411427483"><ele>16.00</ele><time>2011-12-07T09:58:53Z</time></trkpt><trkpt lat="52.0275218133" lon="-2.1411336120"><ele>15.52</ele><time>2011-12-07T09:59:08Z</time></trkpt><trkpt lat="52.0275218133" lon="-2.1411336120"><ele>15.52</ele><time>2011-12-07T09:59:25Z</time></trkpt><trkpt lat="52.0275203045" lon="-2.1411353722"><ele>16.48</ele><time>2011-12-07T09:59:53Z</time></trkpt><trkpt lat="52.0275052171" lon="-2.1411429159"><ele>16.00</ele><time>2011-12-07T10:00:09Z</time></trkpt><trkpt lat="52.0275052171" lon="-2.1411429159"><ele>16.00</ele><time>2011-12-07T10:00:32Z</time></trkpt><trkpt lat="52.0274437778" lon="-2.1411726717"><ele>15.52</ele><time>2011-12-07T10:00:49Z</time></trkpt><trkpt lat="52.0274437778" lon="-2.1411726717"><ele>15.52</ele><time>2011-12-07T10:01:14Z</time></trkpt><trkpt lat="52.0274483040" lon="-2.1411796287"><ele>16.00</ele><time>2011-12-07T10:01:42Z</time></trkpt><trkpt lat="52.0274497289" lon="-2.1411901060"><ele>16.48</ele><time>2011-12-07T10:02:03Z</time></trkpt><trkpt lat="52.0274497289" lon="-2.1411901060"><ele>16.00</ele><time>2011-12-07T10:02:20Z</time></trkpt><trkpt lat="52.0274113398" lon="-2.1412041038"><ele>16.00</ele><time>2011-12-07T10:02:35Z</time></trkpt><trkpt lat="52.0273792371" lon="-2.1412352007"><ele>15.52</ele><time>2011-12-07T10:02:49Z</time></trkpt><trkpt lat="52.0273739565" lon="-2.1412392240"><ele>15.52</ele><time>2011-12-07T10:03:11Z</time></trkpt><trkpt lat="52.0273637306" lon="-2.1413657069"><ele>15.52</ele><time>2011-12-07T10:03:30Z</time></trkpt><trkpt lat="52.0272574481" lon="-2.1414097119"><ele>15.04</ele><time>2011-12-07T10:03:40Z</time></trkpt><trkpt lat="52.0272001997" lon="-2.1411160938"><ele>14.08</ele><time>2011-12-07T10:03:55Z</time></trkpt><trkpt lat="52.0270832721" lon="-2.1407881938"><ele>13.12</ele><time>2011-12-07T10:04:12Z</time></trkpt><trkpt lat="52.0269929152" lon="-2.1406964958"><ele>13.12</ele><time>2011-12-07T10:04:26Z</time></trkpt><trkpt lat="52.0269629918" lon="-2.1406595316"><ele>13.12</ele><time>2011-12-07T10:04:31Z</time></trkpt><trkpt lat="52.0269540232" lon="-2.1405960806"><ele>14.08</ele><time>2011-12-07T10:04:46Z</time></trkpt><trkpt lat="52.0269339066" lon="-2.1405789815"><ele>13.12</ele><time>2011-12-07T10:05:03Z</time></trkpt><trkpt lat="52.0268578827" lon="-2.1406147722"><ele>12.63</ele><time>2011-12-07T10:05:14Z</time></trkpt><trkpt lat="52.0267234370" lon="-2.1407172829"><ele>12.15</ele><time>2011-12-07T10:05:25Z</time></trkpt><trkpt lat="52.0265050046" lon="-2.1407962404"><ele>13.60</ele><time>2011-12-07T10:05:41Z</time></trkpt><trkpt lat="52.0263517834" lon="-2.1408337913"><ele>13.12</ele><time>2011-12-07T10:05:55Z</time></trkpt><trkpt lat="52.0261492766" lon="-2.1408881061"><ele>12.63</ele><time>2011-12-07T10:06:11Z</time></trkpt><trkpt lat="52.0259388071" lon="-2.1409810614"><ele>12.15</ele><time>2011-12-07T10:06:29Z</time></trkpt><trkpt lat="52.0258033555" lon="-2.1410545707"><ele>12.15</ele><time>2011-12-07T10:06:42Z</time></trkpt><trkpt lat="52.0256337896" lon="-2.1411165968"><ele>12.63</ele><time>2011-12-07T10:06:55Z</time></trkpt><trkpt lat="52.0255891141" lon="-2.1411114838"><ele>11.67</ele><time>2011-12-07T10:06:59Z</time></trkpt><trkpt lat="52.0254416764" lon="-2.1411834843"><ele>12.63</ele><time>2011-12-07T10:07:16Z</time></trkpt><trkpt lat="52.0252959151" lon="-2.1412497852"><ele>11.19</ele><time>2011-12-07T10:07:29Z</time></trkpt><trkpt lat="52.0252349786" lon="-2.1412776969"><ele>11.67</ele><time>2011-12-07T10:07:34Z</time></trkpt><trkpt lat="52.0250909775" lon="-2.1413505357"><ele>11.19</ele><time>2011-12-07T10:07:48Z</time></trkpt><trkpt lat="52.0249556936" lon="-2.1414129809"><ele>14.08</ele><time>2011-12-07T10:08:04Z</time></trkpt><trkpt lat="52.0248080883" lon="-2.1414687205"><ele>12.63</ele><time>2011-12-07T10:08:19Z</time></trkpt><trkpt lat="52.0246831141" lon="-2.1415268071"><ele>12.63</ele><time>2011-12-07T10:08:34Z</time></trkpt><trkpt lat="52.0246619917" lon="-2.1415477619"><ele>12.15</ele><time>2011-12-07T10:08:54Z</time></trkpt><trkpt lat="52.0245812740" lon="-2.1415790264"><ele>12.15</ele><time>2011-12-07T10:09:02Z</time></trkpt><trkpt lat="52.0243818685" lon="-2.1416318323"><ele>9.75</ele><time>2011-12-07T10:09:17Z</time></trkpt><trkpt lat="52.0241941977" lon="-2.1416713111"><ele>11.19</ele><time>2011-12-07T10:09:34Z</time></trkpt><trkpt lat="52.0240216143" lon="-2.1416781005"><ele>11.19</ele><time>2011-12-07T10:09:51Z</time></trkpt><trkpt lat="52.0238831453" lon="-2.1416720655"><ele>11.67</ele><time>2011-12-07T10:10:05Z</time></trkpt><trkpt lat="52.0237398148" lon="-2.1416460816"><ele>11.19</ele><time>2011-12-07T10:10:20Z</time></trkpt><trkpt lat="52.0235575922" lon="-2.1416570619"><ele>11.19</ele><time>2011-12-07T10:10:36Z</time></trkpt><trkpt lat="52.0233860146" lon="-2.1416444890"><ele>9.75</ele><time>2011-12-07T10:10:53Z</time></trkpt><trkpt lat="52.0232299436" lon="-2.1416822076"><ele>10.71</ele><time>2011-12-07T10:11:08Z</time></trkpt><trkpt lat="52.0231835078" lon="-2.1416795254"><ele>11.67</ele><time>2011-12-07T10:11:13Z</time></trkpt><trkpt lat="52.0231191348" lon="-2.1416799445"><ele>10.71</ele><time>2011-12-07T10:11:20Z</time></trkpt><trkpt lat="52.0229734574" lon="-2.1417082753"><ele>12.15</ele><time>2011-12-07T10:11:35Z</time></trkpt><trkpt lat="52.0228292886" lon="-2.1417544596"><ele>10.71</ele><time>2011-12-07T10:11:50Z</time></trkpt><trkpt lat="52.0226522628" lon="-2.1417896636"><ele>10.71</ele><time>2011-12-07T10:12:06Z</time></trkpt><trkpt lat="52.0224891510" lon="-2.1418712195"><ele>11.19</ele><time>2011-12-07T10:12:21Z</time></trkpt><trkpt lat="52.0224021468" lon="-2.1418966167"><ele>12.63</ele><time>2011-12-07T10:12:32Z</time></trkpt><trkpt lat="52.0223118737" lon="-2.1419334132"><ele>10.71</ele><time>2011-12-07T10:12:44Z</time></trkpt><trkpt lat="52.0222408790" lon="-2.1419460699"><ele>11.67</ele><time>2011-12-07T10:12:51Z</time></trkpt><trkpt lat="52.0221511927" lon="-2.1419819444"><ele>10.71</ele><time>2011-12-07T10:13:00Z</time></trkpt><trkpt lat="52.0219963789" lon="-2.1420513466"><ele>11.67</ele><time>2011-12-07T10:13:16Z</time></trkpt><trkpt lat="52.0218393859" lon="-2.1420949325"><ele>11.19</ele><time>2011-12-07T10:13:32Z</time></trkpt><trkpt lat="52.0217036828" lon="-2.1421246044"><ele>11.67</ele><time>2011-12-07T10:13:47Z</time></trkpt><trkpt lat="52.0216880087" lon="-2.1421265323"><ele>12.15</ele><time>2011-12-07T10:13:50Z</time></trkpt><trkpt lat="52.0215363801" lon="-2.1421634126"><ele>10.71</ele><time>2011-12-07T10:14:04Z</time></trkpt><trkpt lat="52.0213508885" lon="-2.1422281209"><ele>10.71</ele><time>2011-12-07T10:14:20Z</time></trkpt><trkpt lat="52.0211955719" lon="-2.1422757301"><ele>12.15</ele><time>2011-12-07T10:14:36Z</time></trkpt><trkpt lat="52.0211615413" lon="-2.1422561165"><ele>9.75</ele><time>2011-12-07T10:14:41Z</time></trkpt><trkpt lat="52.0211136807" lon="-2.1422273666"><ele>9.75</ele><time>2011-12-07T10:14:46Z</time></trkpt><trkpt lat="52.0209276862" lon="-2.1422848664"><ele>12.15</ele><time>2011-12-07T10:15:04Z</time></trkpt><trkpt lat="52.0208250917" lon="-2.1423225850"><ele>11.67</ele><time>2011-12-07T10:15:16Z</time></trkpt><trkpt lat="52.0206874609" lon="-2.1423854493"><ele>10.23</ele><time>2011-12-07T10:15:30Z</time></trkpt><trkpt lat="52.0205325633" lon="-2.1424597967"><ele>12.63</ele><time>2011-12-07T10:15:44Z</time></trkpt><trkpt lat="52.0204950124" lon="-2.1424702741"><ele>12.15</ele><time>2011-12-07T10:15:48Z</time></trkpt><trkpt lat="52.0204550307" lon="-2.1424819250"><ele>12.15</ele><time>2011-12-07T10:15:53Z</time></trkpt><trkpt lat="52.0202867221" lon="-2.1425264329"><ele>11.67</ele><time>2011-12-07T10:16:11Z</time></trkpt><trkpt lat="52.0202762447" lon="-2.1425334737"><ele>11.67</ele><time>2011-12-07T10:16:12Z</time></trkpt><trkpt lat="52.0201144740" lon="-2.1425813343"><ele>11.67</ele><time>2011-12-07T10:16:28Z</time></trkpt><trkpt lat="52.0199951157" lon="-2.1426103357"><ele>12.63</ele><time>2011-12-07T10:16:40Z</time></trkpt><trkpt lat="52.0199673716" lon="-2.1426276863"><ele>11.67</ele><time>2011-12-07T10:16:43Z</time></trkpt><trkpt lat="52.0197641104" lon="-2.1427203901"><ele>12.15</ele><time>2011-12-07T10:17:02Z</time></trkpt><trkpt lat="52.0195450913" lon="-2.1428671572"><ele>11.67</ele><time>2011-12-07T10:17:24Z</time></trkpt><trkpt lat="52.0194806345" lon="-2.1428908780"><ele>11.67</ele><time>2011-12-07T10:17:30Z</time></trkpt><trkpt lat="52.0192948077" lon="-2.1429088153"><ele>10.71</ele><time>2011-12-07T10:17:47Z</time></trkpt><trkpt lat="52.0192284230" lon="-2.1429088991"><ele>7.35</ele><time>2011-12-07T10:17:57Z</time></trkpt><trkpt lat="52.0192284230" lon="-2.1429088991"><ele>11.67</ele><time>2011-12-07T10:17:59Z</time></trkpt><trkpt lat="52.0192284230" lon="-2.1429088991"><ele>15.04</ele><time>2011-12-07T10:18:00Z</time></trkpt><trkpt lat="52.0192284230" lon="-2.1429088991"><ele>10.71</ele><time>2011-12-07T10:18:01Z</time></trkpt><trkpt lat="52.0192202926" lon="-2.1429523174"><ele>10.71</ele><time>2011-12-07T10:18:20Z</time></trkpt><trkpt lat="52.0191787183" lon="-2.1429922991"><ele>10.23</ele><time>2011-12-07T10:18:25Z</time></trkpt><trkpt lat="52.0189959928" lon="-2.1431565005"><ele>12.15</ele><time>2011-12-07T10:18:44Z</time></trkpt><trkpt lat="52.0187802427" lon="-2.1433078777"><ele>9.75</ele><time>2011-12-07T10:19:05Z</time></trkpt><trkpt lat="52.0185597986" lon="-2.1434901841"><ele>9.75</ele><time>2011-12-07T10:19:26Z</time></trkpt><trkpt lat="52.0183235966" lon="-2.1436961275"><ele>10.71</ele><time>2011-12-07T10:19:49Z</time></trkpt><trkpt lat="52.0182281267" lon="-2.1437935252"><ele>9.27</ele><time>2011-12-07T10:19:59Z</time></trkpt><trkpt lat="52.0180559624" lon="-2.1439873148"><ele>10.23</ele><time>2011-12-07T10:20:16Z</time></trkpt><trkpt lat="52.0179217681" lon="-2.1440823656"><ele>13.12</ele><time>2011-12-07T10:20:33Z</time></trkpt><trkpt lat="52.0178545453" lon="-2.1441728063"><ele>5.91</ele><time>2011-12-07T10:20:38Z</time></trkpt><trkpt lat="52.0178443193" lon="-2.1441867203"><ele>12.15</ele><time>2011-12-07T10:20:39Z</time></trkpt><trkpt lat="52.0177638531" lon="-2.1442850400"><ele>10.23</ele><time>2011-12-07T10:20:47Z</time></trkpt><trkpt lat="52.0177354384" lon="-2.1443415340"><ele>10.71</ele><time>2011-12-07T10:20:51Z</time></trkpt><trkpt lat="52.0176025853" lon="-2.1444707830"><ele>10.71</ele><time>2011-12-07T10:21:06Z</time></trkpt><trkpt lat="52.0174331032" lon="-2.1446640696"><ele>11.19</ele><time>2011-12-07T10:21:25Z</time></trkpt><trkpt lat="52.0173608512" lon="-2.1447141096"><ele>11.19</ele><time>2011-12-07T10:21:45Z</time></trkpt><trkpt lat="52.0173517987" lon="-2.1447245870"><ele>7.35</ele><time>2011-12-07T10:21:55Z</time></trkpt><trkpt lat="52.0173517987" lon="-2.1447245870"><ele>11.19</ele><time>2011-12-07T10:21:56Z</time></trkpt><trkpt lat="52.0173330233" lon="-2.1447823383"><ele>10.71</ele><time>2011-12-07T10:22:08Z</time></trkpt><trkpt lat="52.0173238032" lon="-2.1447882894"><ele>0.14</ele><time>2011-12-07T10:22:21Z</time></trkpt><trkpt lat="52.0173238032" lon="-2.1447882894"><ele>12.15</ele><time>2011-12-07T10:22:22Z</time></trkpt><trkpt lat="52.0173155889" lon="-2.1448038798"><ele>10.23</ele><time>2011-12-07T10:22:23Z</time></trkpt><trkpt lat="52.0172934607" lon="-2.1448335517"><ele>9.75</ele><time>2011-12-07T10:22:25Z</time></trkpt><trkpt lat="52.0171134174" lon="-2.1449262556"><ele>10.23</ele><time>2011-12-07T10:22:42Z</time></trkpt><trkpt lat="52.0170372259" lon="-2.1449607052"><ele>12.15</ele><time>2011-12-07T10:22:49Z</time></trkpt><trkpt lat="52.0170203783" lon="-2.1449748706"><ele>10.71</ele><time>2011-12-07T10:22:51Z</time></trkpt><trkpt lat="52.0168772154" lon="-2.1450239047"><ele>12.15</ele><time>2011-12-07T10:23:06Z</time></trkpt><trkpt lat="52.0168090705" lon="-2.1450554207"><ele>9.27</ele><time>2011-12-07T10:23:14Z</time></trkpt><trkpt lat="52.0167753752" lon="-2.1450532414"><ele>11.67</ele><time>2011-12-07T10:23:17Z</time></trkpt><trkpt lat="52.0167641435" lon="-2.1450555045"><ele>8.31</ele><time>2011-12-07T10:23:18Z</time></trkpt><trkpt lat="52.0167525765" lon="-2.1450586896"><ele>9.75</ele><time>2011-12-07T10:23:19Z</time></trkpt><trkpt lat="52.0167034585" lon="-2.1450853441"><ele>10.71</ele><time>2011-12-07T10:23:24Z</time></trkpt><trkpt lat="52.0166253392" lon="-2.1450845897"><ele>9.75</ele><time>2011-12-07T10:23:31Z</time></trkpt><trkpt lat="52.0164030511" lon="-2.1451664809"><ele>10.71</ele><time>2011-12-07T10:23:53Z</time></trkpt><trkpt lat="52.0162993670" lon="-2.1451858431"><ele>14.08</ele><time>2011-12-07T10:24:02Z</time></trkpt><trkpt lat="52.0162871294" lon="-2.1451890282"><ele>14.08</ele><time>2011-12-07T10:24:03Z</time></trkpt><trkpt lat="52.0162448008" lon="-2.1451838315"><ele>10.71</ele><time>2011-12-07T10:24:07Z</time></trkpt><trkpt lat="52.0162029751" lon="-2.1451895311"><ele>12.63</ele><time>2011-12-07T10:24:11Z</time></trkpt><trkpt lat="52.0160092693" lon="-2.1452151798"><ele>12.15</ele><time>2011-12-07T10:24:29Z</time></trkpt><trkpt lat="52.0158136357" lon="-2.1452321112"><ele>11.19</ele><time>2011-12-07T10:24:48Z</time></trkpt><trkpt lat="52.0156024955" lon="-2.1453145891"><ele>9.75</ele><time>2011-12-07T10:25:10Z</time></trkpt><trkpt lat="52.0154116396" lon="-2.1454114001"><ele>10.71</ele><time>2011-12-07T10:25:29Z</time></trkpt><trkpt lat="52.0152688120" lon="-2.1454934590"><ele>9.75</ele><time>2011-12-07T10:25:44Z</time></trkpt><trkpt lat="52.0152406488" lon="-2.1455062833"><ele>10.23</ele><time>2011-12-07T10:25:51Z</time></trkpt><trkpt lat="52.0152082946" lon="-2.1455126535"><ele>9.75</ele><time>2011-12-07T10:25:54Z</time></trkpt><trkpt lat="52.0150374714" lon="-2.1456115600"><ele>10.71</ele><time>2011-12-07T10:26:09Z</time></trkpt><trkpt lat="52.0149185322" lon="-2.1457817126"><ele>10.71</ele><time>2011-12-07T10:26:25Z</time></trkpt><trkpt lat="52.0148346294" lon="-2.1458955389"><ele>9.27</ele><time>2011-12-07T10:26:35Z</time></trkpt><trkpt lat="52.0147104096" lon="-2.1460056771"><ele>10.23</ele><time>2011-12-07T10:26:50Z</time></trkpt><trkpt lat="52.0145594515" lon="-2.1461405419"><ele>9.75</ele><time>2011-12-07T10:27:07Z</time></trkpt><trkpt lat="52.0144229941" lon="-2.1463039890"><ele>9.75</ele><time>2011-12-07T10:27:23Z</time></trkpt><trkpt lat="52.0143017918" lon="-2.1464334056"><ele>8.31</ele><time>2011-12-07T10:27:38Z</time></trkpt><trkpt lat="52.0141500793" lon="-2.1466642432"><ele>10.23</ele><time>2011-12-07T10:27:55Z</time></trkpt><trkpt lat="52.0140222553" lon="-2.1468831785"><ele>10.23</ele><time>2011-12-07T10:28:12Z</time></trkpt><trkpt lat="52.0139914099" lon="-2.1469342243"><ele>9.27</ele><time>2011-12-07T10:28:15Z</time></trkpt><trkpt lat="52.0138827804" lon="-2.1471091546"><ele>10.23</ele><time>2011-12-07T10:28:31Z</time></trkpt><trkpt lat="52.0138285495" lon="-2.1472045407"><ele>9.75</ele><time>2011-12-07T10:28:43Z</time></trkpt><trkpt lat="52.0137445629" lon="-2.1473036986"><ele>8.31</ele><time>2011-12-07T10:28:54Z</time></trkpt><trkpt lat="52.0136925112" lon="-2.1473678201"><ele>8.31</ele><time>2011-12-07T10:29:01Z</time></trkpt><trkpt lat="52.0135794394" lon="-2.1475294232"><ele>10.23</ele><time>2011-12-07T10:29:15Z</time></trkpt><trkpt lat="52.0134697203" lon="-2.1477146633"><ele>10.23</ele><time>2011-12-07T10:29:30Z</time></trkpt><trkpt lat="52.0133505296" lon="-2.1478870790"><ele>9.75</ele><time>2011-12-07T10:29:44Z</time></trkpt><trkpt lat="52.0132857375" lon="-2.1479781903"><ele>9.75</ele><time>2011-12-07T10:29:52Z</time></trkpt><trkpt lat="52.0131726656" lon="-2.1481301542"><ele>9.75</ele><time>2011-12-07T10:30:08Z</time></trkpt><trkpt lat="52.0131650381" lon="-2.1481402963"><ele>8.79</ele><time>2011-12-07T10:30:09Z</time></trkpt><trkpt lat="52.0130305085" lon="-2.1482657734"><ele>7.83</ele><time>2011-12-07T10:30:24Z</time></trkpt><trkpt lat="52.0129171852" lon="-2.1483734809"><ele>8.79</ele><time>2011-12-07T10:30:38Z</time></trkpt><trkpt lat="52.0128739346" lon="-2.1484170668"><ele>7.83</ele><time>2011-12-07T10:30:43Z</time></trkpt><trkpt lat="52.0128495432" lon="-2.1484560426"><ele>9.75</ele><time>2011-12-07T10:30:46Z</time></trkpt><trkpt lat="52.0127984136" lon="-2.1485249419"><ele>9.75</ele><time>2011-12-07T10:30:53Z</time></trkpt><trkpt lat="52.0127241500" lon="-2.1486171428"><ele>8.79</ele><time>2011-12-07T10:31:01Z</time></trkpt><trkpt lat="52.0127092302" lon="-2.1486491617"><ele>8.79</ele><time>2011-12-07T10:31:03Z</time></trkpt><trkpt lat="52.0125778858" lon="-2.1488031372"><ele>7.83</ele><time>2011-12-07T10:31:18Z</time></trkpt><trkpt lat="52.0124643948" lon="-2.1489795763"><ele>6.87</ele><time>2011-12-07T10:31:33Z</time></trkpt><trkpt lat="52.0124450326" lon="-2.1490068175"><ele>8.31</ele><time>2011-12-07T10:31:35Z</time></trkpt><trkpt lat="52.0123079885" lon="-2.1491461247"><ele>9.75</ele><time>2011-12-07T10:31:50Z</time></trkpt><trkpt lat="52.0121820923" lon="-2.1492070612"><ele>9.27</ele><time>2011-12-07T10:32:07Z</time></trkpt><trkpt lat="52.0121598803" lon="-2.1492576040"><ele>9.27</ele><time>2011-12-07T10:32:24Z</time></trkpt><trkpt lat="52.0121112652" lon="-2.1493294369"><ele>7.83</ele><time>2011-12-07T10:32:39Z</time></trkpt><trkpt lat="52.0119888894" lon="-2.1495028585"><ele>7.35</ele><time>2011-12-07T10:32:56Z</time></trkpt><trkpt lat="52.0118202455" lon="-2.1496563312"><ele>7.83</ele><time>2011-12-07T10:33:14Z</time></trkpt><trkpt lat="52.0116589777" lon="-2.1498021763"><ele>7.83</ele><time>2011-12-07T10:33:30Z</time></trkpt><trkpt lat="52.0115095284" lon="-2.1498924494"><ele>8.79</ele><time>2011-12-07T10:33:45Z</time></trkpt><trkpt lat="52.0113329217" lon="-2.1499734186"><ele>8.31</ele><time>2011-12-07T10:34:02Z</time></trkpt><trkpt lat="52.0112432353" lon="-2.1500077005"><ele>9.75</ele><time>2011-12-07T10:34:11Z</time></trkpt><trkpt lat="52.0112210233" lon="-2.1500249673"><ele>7.83</ele><time>2011-12-07T10:34:13Z</time></trkpt><trkpt lat="52.0111613441" lon="-2.1500406414"><ele>10.71</ele><time>2011-12-07T10:34:19Z</time></trkpt><trkpt lat="52.0111496095" lon="-2.1500415634"><ele>11.19</ele><time>2011-12-07T10:34:20Z</time></trkpt><trkpt lat="52.0111273974" lon="-2.1500475146"><ele>8.79</ele><time>2011-12-07T10:34:22Z</time></trkpt><trkpt lat="52.0109876711" lon="-2.1501038410"><ele>9.75</ele><time>2011-12-07T10:34:37Z</time></trkpt><trkpt lat="52.0109357871" lon="-2.1501343511"><ele>5.42</ele><time>2011-12-07T10:34:42Z</time></trkpt><trkpt lat="52.0109234657" lon="-2.1501352731"><ele>8.31</ele><time>2011-12-07T10:34:43Z</time></trkpt><trkpt lat="52.0107775368" lon="-2.1501323394"><ele>8.31</ele><time>2011-12-07T10:34:57Z</time></trkpt><trkpt lat="52.0106796362" lon="-2.1501641907"><ele>8.79</ele><time>2011-12-07T10:35:14Z</time></trkpt><trkpt lat="52.0106642973" lon="-2.1501361113"><ele>8.79</ele><time>2011-12-07T10:35:31Z</time></trkpt><trkpt lat="52.0106548257" lon="-2.1501291543"><ele>8.79</ele><time>2011-12-07T10:35:50Z</time></trkpt><trkpt lat="52.0106318593" lon="-2.1501533780"><ele>9.27</ele><time>2011-12-07T10:35:58Z</time></trkpt><trkpt lat="52.0106318593" lon="-2.1501533780"><ele>7.83</ele><time>2011-12-07T10:36:25Z</time></trkpt><trkpt lat="52.0106287580" lon="-2.1501518693"><ele>8.31</ele><time>2011-12-07T10:36:47Z</time></trkpt><trkpt lat="52.0106281713" lon="-2.1501523722"><ele>8.31</ele><time>2011-12-07T10:37:08Z</time></trkpt><trkpt lat="52.0106281713" lon="-2.1501523722"><ele>8.31</ele><time>2011-12-07T10:37:32Z</time></trkpt><trkpt lat="52.0106262434" lon="-2.1501543839"><ele>8.79</ele><time>2011-12-07T10:37:51Z</time></trkpt><trkpt lat="52.0106185321" lon="-2.1501526237"><ele>8.79</ele><time>2011-12-07T10:38:10Z</time></trkpt><trkpt lat="52.0106197055" lon="-2.1501534618"><ele>8.31</ele><time>2011-12-07T10:38:28Z</time></trkpt><trkpt lat="52.0106197055" lon="-2.1501534618"><ele>7.83</ele><time>2011-12-07T10:38:56Z</time></trkpt><trkpt lat="52.0105964877" lon="-2.1501749195"><ele>6.39</ele><time>2011-12-07T10:39:15Z</time></trkpt><trkpt lat="52.0104336273" lon="-2.1502659470"><ele>8.31</ele><time>2011-12-07T10:39:33Z</time></trkpt><trkpt lat="52.0104230661" lon="-2.1502663661"><ele>8.31</ele><time>2011-12-07T10:39:34Z</time></trkpt><trkpt lat="52.0103739481" lon="-2.1502898354"><ele>8.31</ele><time>2011-12-07T10:39:39Z</time></trkpt><trkpt lat="52.0102365687" lon="-2.1503672842"><ele>7.83</ele><time>2011-12-07T10:39:54Z</time></trkpt><trkpt lat="52.0101503190" lon="-2.1503963694"><ele>7.35</ele><time>2011-12-07T10:40:04Z</time></trkpt><trkpt lat="52.0101273526" lon="-2.1503978781"><ele>7.83</ele><time>2011-12-07T10:40:06Z</time></trkpt><trkpt lat="52.0099875424" lon="-2.1504373569"><ele>7.35</ele><time>2011-12-07T10:40:19Z</time></trkpt><trkpt lat="52.0098339021" lon="-2.1504745726"><ele>8.79</ele><time>2011-12-07T10:40:34Z</time></trkpt><trkpt lat="52.0098286215" lon="-2.1504632570"><ele>8.31</ele><time>2011-12-07T10:40:36Z</time></trkpt><trkpt lat="52.0097160526" lon="-2.1504885703"><ele>8.31</ele><time>2011-12-07T10:40:46Z</time></trkpt><trkpt lat="52.0095704589" lon="-2.1505419631"><ele>8.79</ele><time>2011-12-07T10:40:59Z</time></trkpt><trkpt lat="52.0094125438" lon="-2.1505894046"><ele>8.79</ele><time>2011-12-07T10:41:13Z</time></trkpt><trkpt lat="52.0092387870" lon="-2.1505997982"><ele>8.79</ele><time>2011-12-07T10:41:26Z</time></trkpt><trkpt lat="52.0090680476" lon="-2.1506560408"><ele>8.31</ele><time>2011-12-07T10:41:39Z</time></trkpt><trkpt lat="52.0088784490" lon="-2.1507197432"><ele>8.79</ele><time>2011-12-07T10:41:54Z</time></trkpt><trkpt lat="52.0086869225" lon="-2.1507790033"><ele>8.79</ele><time>2011-12-07T10:42:09Z</time></trkpt><trkpt lat="52.0084987488" lon="-2.1508152131"><ele>8.79</ele><time>2011-12-07T10:42:24Z</time></trkpt><trkpt lat="52.0082965773" lon="-2.1508513391"><ele>9.27</ele><time>2011-12-07T10:42:39Z</time></trkpt><trkpt lat="52.0080894604" lon="-2.1508956794"><ele>9.75</ele><time>2011-12-07T10:42:57Z</time></trkpt><trkpt lat="52.0079558529" lon="-2.1509245969"><ele>9.27</ele><time>2011-12-07T10:43:09Z</time></trkpt><trkpt lat="52.0077675954" lon="-2.1509432886"><ele>7.83</ele><time>2011-12-07T10:43:26Z</time></trkpt><trkpt lat="52.0077566989" lon="-2.1509491559"><ele>8.79</ele><time>2011-12-07T10:43:28Z</time></trkpt><trkpt lat="52.0077345707" lon="-2.1509554423"><ele>7.83</ele><time>2011-12-07T10:43:30Z</time></trkpt><trkpt lat="52.0076776575" lon="-2.1509520058"><ele>7.83</ele><time>2011-12-07T10:43:37Z</time></trkpt><trkpt lat="52.0074526872" lon="-2.1509715356"><ele>8.31</ele><time>2011-12-07T10:43:54Z</time></trkpt><trkpt lat="52.0073769987" lon="-2.1509680990"><ele>9.27</ele><time>2011-12-07T10:44:00Z</time></trkpt><trkpt lat="52.0073399507" lon="-2.1509762295"><ele>10.71</ele><time>2011-12-07T10:44:03Z</time></trkpt><trkpt lat="52.0072733983" lon="-2.1509768162"><ele>9.75</ele><time>2011-12-07T10:44:08Z</time></trkpt><trkpt lat="52.0071083587" lon="-2.1510349866"><ele>9.75</ele><time>2011-12-07T10:44:21Z</time></trkpt><trkpt lat="52.0069169160" lon="-2.1510465536"><ele>9.27</ele><time>2011-12-07T10:44:35Z</time></trkpt><trkpt lat="52.0067893434" lon="-2.1510742977"><ele>9.27</ele><time>2011-12-07T10:44:49Z</time></trkpt><trkpt lat="52.0067087933" lon="-2.1511079092"><ele>8.79</ele><time>2011-12-07T10:44:56Z</time></trkpt><trkpt lat="52.0065815561" lon="-2.1511720307"><ele>9.27</ele><time>2011-12-07T10:45:11Z</time></trkpt><trkpt lat="52.0065815561" lon="-2.1511720307"><ele>8.79</ele><time>2011-12-07T10:45:15Z</time></trkpt><trkpt lat="52.0065593440" lon="-2.1511841845"><ele>8.31</ele><time>2011-12-07T10:45:17Z</time></trkpt><trkpt lat="52.0065306779" lon="-2.1512047201"><ele>8.79</ele><time>2011-12-07T10:45:20Z</time></trkpt><trkpt lat="52.0063655544" lon="-2.1512966696"><ele>8.79</ele><time>2011-12-07T10:45:35Z</time></trkpt><trkpt lat="52.0061674062" lon="-2.1514173690"><ele>9.27</ele><time>2011-12-07T10:45:52Z</time></trkpt><trkpt lat="52.0060158614" lon="-2.1515205503"><ele>6.39</ele><time>2011-12-07T10:46:05Z</time></trkpt><trkpt lat="52.0059809089" lon="-2.1515442710"><ele>8.31</ele><time>2011-12-07T10:46:08Z</time></trkpt><trkpt lat="52.0059607085" lon="-2.1515603643"><ele>6.87</ele><time>2011-12-07T10:46:10Z</time></trkpt><trkpt lat="52.0059294440" lon="-2.1515786368"><ele>7.83</ele><time>2011-12-07T10:46:13Z</time></trkpt><trkpt lat="52.0057784859" lon="-2.1516973246"><ele>6.87</ele><time>2011-12-07T10:46:26Z</time></trkpt><trkpt lat="52.0056012087" lon="-2.1518334467"><ele>6.87</ele><time>2011-12-07T10:46:42Z</time></trkpt><trkpt lat="52.0054411981" lon="-2.1519483626"><ele>7.35</ele><time>2011-12-07T10:46:56Z</time></trkpt><trkpt lat="52.0053009689" lon="-2.1520575788"><ele>7.83</ele><time>2011-12-07T10:47:08Z</time></trkpt><trkpt lat="52.0051661041" lon="-2.1521895099"><ele>7.35</ele><time>2011-12-07T10:47:20Z</time></trkpt><trkpt lat="52.0050091948" lon="-2.1523376182"><ele>6.87</ele><time>2011-12-07T10:47:35Z</time></trkpt><trkpt lat="52.0048178360" lon="-2.1525289770"><ele>8.31</ele><time>2011-12-07T10:47:53Z</time></trkpt><trkpt lat="52.0046347752" lon="-2.1527056675"><ele>6.39</ele><time>2011-12-07T10:48:11Z</time></trkpt><trkpt lat="52.0044852421" lon="-2.1528299712"><ele>8.31</ele><time>2011-12-07T10:48:25Z</time></trkpt><trkpt lat="52.0044521336" lon="-2.1528434660"><ele>10.23</ele><time>2011-12-07T10:48:31Z</time></trkpt><trkpt lat="52.0044199470" lon="-2.1528550331"><ele>7.35</ele><time>2011-12-07T10:48:34Z</time></trkpt><trkpt lat="52.0043069590" lon="-2.1529337391"><ele>7.83</ele><time>2011-12-07T10:48:43Z</time></trkpt><trkpt lat="52.0042248163" lon="-2.1530040633"><ele>6.87</ele><time>2011-12-07T10:48:50Z</time></trkpt><trkpt lat="52.0040327869" lon="-2.1531634033"><ele>7.83</ele><time>2011-12-07T10:49:07Z</time></trkpt><trkpt lat="52.0038526598" lon="-2.1532923169"><ele>7.83</ele><time>2011-12-07T10:49:22Z</time></trkpt><trkpt lat="52.0036757179" lon="-2.1534251701"><ele>7.83</ele><time>2011-12-07T10:49:37Z</time></trkpt><trkpt lat="52.0035720337" lon="-2.1534878667"><ele>9.27</ele><time>2011-12-07T10:49:52Z</time></trkpt><trkpt lat="52.0035720337" lon="-2.1534878667"><ele>7.83</ele><time>2011-12-07T10:49:57Z</time></trkpt><trkpt lat="52.0035485644" lon="-2.1535021998"><ele>7.83</ele><time>2011-12-07T10:49:59Z</time></trkpt><trkpt lat="52.0034225006" lon="-2.1536058001"><ele>8.79</ele><time>2011-12-07T10:50:13Z</time></trkpt><trkpt lat="52.0034225006" lon="-2.1536058001"><ele>8.31</ele><time>2011-12-07T10:50:20Z</time></trkpt><trkpt lat="52.0034024678" lon="-2.1536197141"><ele>8.31</ele><time>2011-12-07T10:50:22Z</time></trkpt><trkpt lat="52.0032865461" lon="-2.1536757052"><ele>7.83</ele><time>2011-12-07T10:50:32Z</time></trkpt><trkpt lat="52.0031143818" lon="-2.1537520643"><ele>7.83</ele><time>2011-12-07T10:50:46Z</time></trkpt><trkpt lat="52.0029661898" lon="-2.1537610330"><ele>7.35</ele><time>2011-12-07T10:50:59Z</time></trkpt><trkpt lat="52.0028932672" lon="-2.1537466999"><ele>7.35</ele><time>2011-12-07T10:51:06Z</time></trkpt><trkpt lat="52.0028104540" lon="-2.1537451074"><ele>6.87</ele><time>2011-12-07T10:51:14Z</time></trkpt><trkpt lat="52.0027472544" lon="-2.1537306905"><ele>6.39</ele><time>2011-12-07T10:51:21Z</time></trkpt><trkpt lat="52.0026822109" lon="-2.1537293494"><ele>9.75</ele><time>2011-12-07T10:51:27Z</time></trkpt><trkpt lat="52.0026491862" lon="-2.1537272539"><ele>7.35</ele><time>2011-12-07T10:51:30Z</time></trkpt><trkpt lat="52.0025931951" lon="-2.1537267510"><ele>8.79</ele><time>2011-12-07T10:51:44Z</time></trkpt><trkpt lat="52.0025931951" lon="-2.1537267510"><ele>8.31</ele><time>2011-12-07T10:52:08Z</time></trkpt><trkpt lat="52.0025854837" lon="-2.1537483763"><ele>8.79</ele><time>2011-12-07T10:52:13Z</time></trkpt><trkpt lat="52.0025842264" lon="-2.1537523158"><ele>6.87</ele><time>2011-12-07T10:52:20Z</time></trkpt><trkpt lat="52.0025672950" lon="-2.1537757851"><ele>7.35</ele><time>2011-12-07T10:52:23Z</time></trkpt><trkpt lat="52.0024230424" lon="-2.1539006755"><ele>6.39</ele><time>2011-12-07T10:52:37Z</time></trkpt><trkpt lat="52.0023464318" lon="-2.1539905295"><ele>4.46</ele><time>2011-12-07T10:52:44Z</time></trkpt><trkpt lat="52.0022675581" lon="-2.1541006677"><ele>6.87</ele><time>2011-12-07T10:52:52Z</time></trkpt><trkpt lat="52.0021160133" lon="-2.1542794537"><ele>6.39</ele><time>2011-12-07T10:53:09Z</time></trkpt><trkpt lat="52.0020563342" lon="-2.1543715708"><ele>6.39</ele><time>2011-12-07T10:53:16Z</time></trkpt><trkpt lat="52.0019324496" lon="-2.1544834692"><ele>6.39</ele><time>2011-12-07T10:53:31Z</time></trkpt><trkpt lat="52.0019324496" lon="-2.1544834692"><ele>3.02</ele><time>2011-12-07T10:53:37Z</time></trkpt><trkpt lat="52.0019324496" lon="-2.1544834692"><ele>6.87</ele><time>2011-12-07T10:53:45Z</time></trkpt><trkpt lat="52.0019324496" lon="-2.1544834692"><ele>6.39</ele><time>2011-12-07T10:54:06Z</time></trkpt><trkpt lat="52.0019217208" lon="-2.1544957068"><ele>5.91</ele><time>2011-12-07T10:54:29Z</time></trkpt><trkpt lat="52.0019202959" lon="-2.1544967126"><ele>1.58</ele><time>2011-12-07T10:54:32Z</time></trkpt><trkpt lat="52.0019202959" lon="-2.1544967126"><ele>5.91</ele><time>2011-12-07T10:54:33Z</time></trkpt><trkpt lat="52.0018979162" lon="-2.1545055136"><ele>5.91</ele><time>2011-12-07T10:54:46Z</time></trkpt><trkpt lat="52.0018766262" lon="-2.1545243729"><ele>4.46</ele><time>2011-12-07T10:55:08Z</time></trkpt><trkpt lat="52.0018766262" lon="-2.1545243729"><ele>6.87</ele><time>2011-12-07T10:55:12Z</time></trkpt><trkpt lat="52.0018766262" lon="-2.1545243729"><ele>6.39</ele><time>2011-12-07T10:55:44Z</time></trkpt><trkpt lat="52.0018698368" lon="-2.1545403823"><ele>5.91</ele><time>2011-12-07T10:56:11Z</time></trkpt><trkpt lat="52.0017931424" lon="-2.1546399593"><ele>7.35</ele><time>2011-12-07T10:56:24Z</time></trkpt><trkpt lat="52.0016928110" lon="-2.1547108702"><ele>5.42</ele><time>2011-12-07T10:56:34Z</time></trkpt><trkpt lat="52.0015359856" lon="-2.1548157278"><ele>5.42</ele><time>2011-12-07T10:56:51Z</time></trkpt><trkpt lat="52.0013919845" lon="-2.1549080964"><ele>5.42</ele><time>2011-12-07T10:57:07Z</time></trkpt><trkpt lat="52.0012294594" lon="-2.1550110262"><ele>5.91</ele><time>2011-12-07T10:57:24Z</time></trkpt><trkpt lat="52.0011064131" lon="-2.1551107708"><ele>4.46</ele><time>2011-12-07T10:57:38Z</time></trkpt><trkpt lat="52.0009914134" lon="-2.1552014630"><ele>5.42</ele><time>2011-12-07T10:57:52Z</time></trkpt><trkpt lat="52.0008683670" lon="-2.1553044766"><ele>5.42</ele><time>2011-12-07T10:58:06Z</time></trkpt><trkpt lat="52.0008005574" lon="-2.1553765610"><ele>5.42</ele><time>2011-12-07T10:58:14Z</time></trkpt><trkpt lat="52.0006662793" lon="-2.1555078216"><ele>4.94</ele><time>2011-12-07T10:58:28Z</time></trkpt><trkpt lat="52.0004905108" lon="-2.1556463744"><ele>3.98</ele><time>2011-12-07T10:58:45Z</time></trkpt><trkpt lat="52.0003892574" lon="-2.1557350550"><ele>6.39</ele><time>2011-12-07T10:58:57Z</time></trkpt><trkpt lat="52.0002210326" lon="-2.1558638848"><ele>5.91</ele><time>2011-12-07T10:59:13Z</time></trkpt><trkpt lat="52.0000647940" lon="-2.1559779625"><ele>6.39</ele><time>2011-12-07T10:59:29Z</time></trkpt><trkpt lat="51.9999093097" lon="-2.1560927108"><ele>6.39</ele><time>2011-12-07T10:59:44Z</time></trkpt><trkpt lat="51.9997462817" lon="-2.1561803017"><ele>6.87</ele><time>2011-12-07T11:00:02Z</time></trkpt><trkpt lat="51.9997245725" lon="-2.1562034357"><ele>5.91</ele><time>2011-12-07T11:00:18Z</time></trkpt><trkpt lat="51.9997245725" lon="-2.1562034357"><ele>7.35</ele><time>2011-12-07T11:00:20Z</time></trkpt><trkpt lat="51.9997144304" lon="-2.1562217083"><ele>6.39</ele><time>2011-12-07T11:00:37Z</time></trkpt><trkpt lat="51.9997144304" lon="-2.1562217083"><ele>6.87</ele><time>2011-12-07T11:01:01Z</time></trkpt><trkpt lat="51.9997143466" lon="-2.1562235523"><ele>6.87</ele><time>2011-12-07T11:01:26Z</time></trkpt><trkpt lat="51.9997143466" lon="-2.1562235523"><ele>7.35</ele><time>2011-12-07T11:01:51Z</time></trkpt><trkpt lat="51.9997145142" lon="-2.1562235523"><ele>7.35</ele><time>2011-12-07T11:02:17Z</time></trkpt><trkpt lat="51.9997160230" lon="-2.1562276594"><ele>7.83</ele><time>2011-12-07T11:02:41Z</time></trkpt><trkpt lat="51.9997160230" lon="-2.1562276594"><ele>8.31</ele><time>2011-12-07T11:03:12Z</time></trkpt><trkpt lat="51.9997177832" lon="-2.1562274080"><ele>7.83</ele><time>2011-12-07T11:03:18Z</time></trkpt><trkpt lat="51.9997177832" lon="-2.1562274080"><ele>6.39</ele><time>2011-12-07T11:03:26Z</time></trkpt><trkpt lat="51.9997179508" lon="-2.1562277433"><ele>7.35</ele><time>2011-12-07T11:03:54Z</time></trkpt><trkpt lat="51.9997179508" lon="-2.1562277433"><ele>9.27</ele><time>2011-12-07T11:04:03Z</time></trkpt><trkpt lat="51.9997179508" lon="-2.1562277433"><ele>6.87</ele><time>2011-12-07T11:04:31Z</time></trkpt><trkpt lat="51.9997198787" lon="-2.1562270727"><ele>6.39</ele><time>2011-12-07T11:05:01Z</time></trkpt><trkpt lat="51.9997215550" lon="-2.1562274918"><ele>6.87</ele><time>2011-12-07T11:05:31Z</time></trkpt><trkpt lat="51.9997234829" lon="-2.1562252287"><ele>7.35</ele><time>2011-12-07T11:05:57Z</time></trkpt><trkpt lat="51.9997234829" lon="-2.1562252287"><ele>5.91</ele><time>2011-12-07T11:06:26Z</time></trkpt><trkpt lat="51.9997234829" lon="-2.1562240552"><ele>7.35</ele><time>2011-12-07T11:06:52Z</time></trkpt><trkpt lat="51.9997239858" lon="-2.1562236361"><ele>6.87</ele><time>2011-12-07T11:07:23Z</time></trkpt><trkpt lat="51.9997239858" lon="-2.1562236361"><ele>6.39</ele><time>2011-12-07T11:07:50Z</time></trkpt><trkpt lat="51.9997240696" lon="-2.1562237199"><ele>7.35</ele><time>2011-12-07T11:08:18Z</time></trkpt><trkpt lat="51.9997246563" lon="-2.1562233847"><ele>7.83</ele><time>2011-12-07T11:08:53Z</time></trkpt><trkpt lat="51.9997260813" lon="-2.1562233008"><ele>6.87</ele><time>2011-12-07T11:09:22Z</time></trkpt><trkpt lat="51.9997260813" lon="-2.1562233008"><ele>7.35</ele><time>2011-12-07T11:09:45Z</time></trkpt><trkpt lat="51.9997279253" lon="-2.1562261507"><ele>7.35</ele><time>2011-12-07T11:10:11Z</time></trkpt><trkpt lat="51.9997274224" lon="-2.1562239714"><ele>7.83</ele><time>2011-12-07T11:10:40Z</time></trkpt><trkpt lat="51.9997529034" lon="-2.1561689861"><ele>7.35</ele><time>2011-12-07T11:10:57Z</time></trkpt><trkpt lat="51.9997532386" lon="-2.1561692376"><ele>7.35</ele><time>2011-12-07T11:11:27Z</time></trkpt><trkpt lat="51.9997532386" lon="-2.1561692376"><ele>7.35</ele><time>2011-12-07T11:11:50Z</time></trkpt><trkpt lat="51.9997525681" lon="-2.1561642084"><ele>7.83</ele><time>2011-12-07T11:12:16Z</time></trkpt><trkpt lat="51.9997524004" lon="-2.1561626159"><ele>7.35</ele><time>2011-12-07T11:12:45Z</time></trkpt><trkpt lat="51.9997524004" lon="-2.1561626159"><ele>7.35</ele><time>2011-12-07T11:13:17Z</time></trkpt><trkpt lat="51.9997517299" lon="-2.1561622806"><ele>6.87</ele><time>2011-12-07T11:13:49Z</time></trkpt><trkpt lat="51.9997518975" lon="-2.1561612748"><ele>7.35</ele><time>2011-12-07T11:14:19Z</time></trkpt><trkpt lat="51.9997518975" lon="-2.1561612748"><ele>6.87</ele><time>2011-12-07T11:14:38Z</time></trkpt><trkpt lat="51.9997509755" lon="-2.1561594307"><ele>6.39</ele><time>2011-12-07T11:15:02Z</time></trkpt><trkpt lat="51.9997524004" lon="-2.1561564971"><ele>6.39</ele><time>2011-12-07T11:15:26Z</time></trkpt><trkpt lat="51.9997233152" lon="-2.1561657172"><ele>7.83</ele><time>2011-12-07T11:15:35Z</time></trkpt><trkpt lat="51.9996948168" lon="-2.1561763622"><ele>6.87</ele><time>2011-12-07T11:15:38Z</time></trkpt><trkpt lat="51.9996327069" lon="-2.1562370472"><ele>6.39</ele><time>2011-12-07T11:15:51Z</time></trkpt><trkpt lat="51.9995363150" lon="-2.1563671343"><ele>6.87</ele><time>2011-12-07T11:16:07Z</time></trkpt><trkpt lat="51.9993719459" lon="-2.1565850638"><ele>6.39</ele><time>2011-12-07T11:16:23Z</time></trkpt><trkpt lat="51.9992458820" lon="-2.1567290649"><ele>5.91</ele><time>2011-12-07T11:16:41Z</time></trkpt><trkpt lat="51.9990812615" lon="-2.1569625847"><ele>6.39</ele><time>2011-12-07T11:16:58Z</time></trkpt><trkpt lat="51.9989517611" lon="-2.1570900735"><ele>5.91</ele><time>2011-12-07T11:17:13Z</time></trkpt><trkpt lat="51.9988438860" lon="-2.1573220845"><ele>6.39</ele><time>2011-12-07T11:17:28Z</time></trkpt><trkpt lat="51.9988330733" lon="-2.1573370043"><ele>6.39</ele><time>2011-12-07T11:17:29Z</time></trkpt><trkpt lat="51.9987993781" lon="-2.1574358270"><ele>6.39</ele><time>2011-12-07T11:17:43Z</time></trkpt><trkpt lat="51.9989116117" lon="-2.1574359946"><ele>6.39</ele><time>2011-12-07T11:17:52Z</time></trkpt><trkpt lat="51.9991842750" lon="-2.1574622300"><ele>6.87</ele><time>2011-12-07T11:18:13Z</time></trkpt><trkpt lat="51.9994031265" lon="-2.1574548539"><ele>5.91</ele><time>2011-12-07T11:18:30Z</time></trkpt><trkpt lat="51.9995973352" lon="-2.1574753057"><ele>5.91</ele><time>2011-12-07T11:18:47Z</time></trkpt><trkpt lat="51.9998072181" lon="-2.1575135272"><ele>5.42</ele><time>2011-12-07T11:19:06Z</time></trkpt><trkpt lat="51.9999829028" lon="-2.1575346496"><ele>5.42</ele><time>2011-12-07T11:19:22Z</time></trkpt><trkpt lat="52.0001076255" lon="-2.1574373357"><ele>6.87</ele><time>2011-12-07T11:19:38Z</time></trkpt><trkpt lat="52.0001999941" lon="-2.1573502477"><ele>6.87</ele><time>2011-12-07T11:19:48Z</time></trkpt><trkpt lat="52.0003215317" lon="-2.1571854595"><ele>6.39</ele><time>2011-12-07T11:20:05Z</time></trkpt><trkpt lat="52.0003640279" lon="-2.1571643371"><ele>4.94</ele><time>2011-12-07T11:20:20Z</time></trkpt><trkpt lat="52.0004334301" lon="-2.1571309771"><ele>5.91</ele><time>2011-12-07T11:20:34Z</time></trkpt><trkpt lat="52.0004643593" lon="-2.1571184881"><ele>5.91</ele><time>2011-12-07T11:20:37Z</time></trkpt><trkpt lat="52.0006803609" lon="-2.1570900735"><ele>5.91</ele><time>2011-12-07T11:20:57Z</time></trkpt><trkpt lat="52.0007745735" lon="-2.1570734773"><ele>5.91</ele><time>2011-12-07T11:21:06Z</time></trkpt><trkpt lat="52.0009298064" lon="-2.1570066735"><ele>5.91</ele><time>2011-12-07T11:21:23Z</time></trkpt><trkpt lat="52.0010351669" lon="-2.1569593158"><ele>9.75</ele><time>2011-12-07T11:21:35Z</time></trkpt><trkpt lat="52.0010422915" lon="-2.1569613274"><ele>5.42</ele><time>2011-12-07T11:21:36Z</time></trkpt><trkpt lat="52.0012462232" lon="-2.1569491737"><ele>5.42</ele><time>2011-12-07T11:21:56Z</time></trkpt><trkpt lat="52.0014411025" lon="-2.1569389477"><ele>5.42</ele><time>2011-12-07T11:22:15Z</time></trkpt><trkpt lat="52.0015018713" lon="-2.1569517720"><ele>6.39</ele><time>2011-12-07T11:22:25Z</time></trkpt><trkpt lat="52.0015403442" lon="-2.1569328289"><ele>6.39</ele><time>2011-12-07T11:22:29Z</time></trkpt><trkpt lat="52.0017365646" lon="-2.1569026541"><ele>4.46</ele><time>2011-12-07T11:22:48Z</time></trkpt><trkpt lat="52.0019224752" lon="-2.1568587329"><ele>4.94</ele><time>2011-12-07T11:23:05Z</time></trkpt><trkpt lat="52.0021507144" lon="-2.1568418853"><ele>4.94</ele><time>2011-12-07T11:23:26Z</time></trkpt><trkpt lat="52.0023535565" lon="-2.1568707190"><ele>4.46</ele><time>2011-12-07T11:23:46Z</time></trkpt><trkpt lat="52.0025434904" lon="-2.1568721440"><ele>5.91</ele><time>2011-12-07T11:24:07Z</time></trkpt><trkpt lat="52.0025634393" lon="-2.1568861417"><ele>4.46</ele><time>2011-12-07T11:24:30Z</time></trkpt><trkpt lat="52.0026242919" lon="-2.1568677016"><ele>5.42</ele><time>2011-12-07T11:24:50Z</time></trkpt><trkpt lat="52.0026332606" lon="-2.1568586491"><ele>4.94</ele><time>2011-12-07T11:24:51Z</time></trkpt><trkpt lat="52.0026642736" lon="-2.1568328328"><ele>5.91</ele><time>2011-12-07T11:24:54Z</time></trkpt><trkpt lat="52.0028547943" lon="-2.1568320785"><ele>5.91</ele><time>2011-12-07T11:25:12Z</time></trkpt><trkpt lat="52.0028879028" lon="-2.1568423044"><ele>5.42</ele><time>2011-12-07T11:25:17Z</time></trkpt><trkpt lat="52.0030221809" lon="-2.1566493530"><ele>6.39</ele><time>2011-12-07T11:25:34Z</time></trkpt><trkpt lat="52.0031451434" lon="-2.1564363688"><ele>5.42</ele><time>2011-12-07T11:25:51Z</time></trkpt><trkpt lat="52.0031585544" lon="-2.1563884243"><ele>5.91</ele><time>2011-12-07T11:25:55Z</time></trkpt><trkpt lat="52.0033451356" lon="-2.1561520547"><ele>6.39</ele><time>2011-12-07T11:26:16Z</time></trkpt><trkpt lat="52.0034660865" lon="-2.1560292598"><ele>5.91</ele><time>2011-12-07T11:26:31Z</time></trkpt><trkpt lat="52.0034929086" lon="-2.1560037788"><ele>6.39</ele><time>2011-12-07T11:26:34Z</time></trkpt><trkpt lat="52.0036414359" lon="-2.1558476239"><ele>6.39</ele><time>2011-12-07T11:26:50Z</time></trkpt><trkpt lat="52.0038289391" lon="-2.1556546725"><ele>6.39</ele><time>2011-12-07T11:27:10Z</time></trkpt><trkpt lat="52.0039705094" lon="-2.1555296145"><ele>6.87</ele><time>2011-12-07T11:27:25Z</time></trkpt><trkpt lat="52.0040846709" lon="-2.1554338094"><ele>6.39</ele><time>2011-12-07T11:27:37Z</time></trkpt><trkpt lat="52.0042610262" lon="-2.1552761458"><ele>6.39</ele><time>2011-12-07T11:27:55Z</time></trkpt><trkpt lat="52.0044233836" lon="-2.1551339049"><ele>4.94</ele><time>2011-12-07T11:28:12Z</time></trkpt><trkpt lat="52.0045013353" lon="-2.1550551988"><ele>6.39</ele><time>2011-12-07T11:28:21Z</time></trkpt><trkpt lat="52.0046537183" lon="-2.1549133770"><ele>7.35</ele><time>2011-12-07T11:28:39Z</time></trkpt><trkpt lat="52.0047678798" lon="-2.1547738183"><ele>6.87</ele><time>2011-12-07T11:28:56Z</time></trkpt><trkpt lat="52.0049060136" lon="-2.1546066832"><ele>6.87</ele><time>2011-12-07T11:29:14Z</time></trkpt><trkpt lat="52.0049216878" lon="-2.1545788553"><ele>6.39</ele><time>2011-12-07T11:29:22Z</time></trkpt><trkpt lat="52.0049360208" lon="-2.1545532066"><ele>6.87</ele><time>2011-12-07T11:29:24Z</time></trkpt><trkpt lat="52.0049788523" lon="-2.1545108780"><ele>6.39</ele><time>2011-12-07T11:29:28Z</time></trkpt><trkpt lat="52.0051760785" lon="-2.1543157473"><ele>7.35</ele><time>2011-12-07T11:29:48Z</time></trkpt><trkpt lat="52.0053308923" lon="-2.1541344468"><ele>7.35</ele><time>2011-12-07T11:30:06Z</time></trkpt><trkpt lat="52.0054805093" lon="-2.1539713349"><ele>8.79</ele><time>2011-12-07T11:30:24Z</time></trkpt><trkpt lat="52.0055746380" lon="-2.1538638789"><ele>9.27</ele><time>2011-12-07T11:30:39Z</time></trkpt><trkpt lat="52.0055938326" lon="-2.1538327821"><ele>8.79</ele><time>2011-12-07T11:30:56Z</time></trkpt><trkpt lat="52.0056725387" lon="-2.1536866017"><ele>9.75</ele><time>2011-12-07T11:31:11Z</time></trkpt><trkpt lat="52.0058150310" lon="-2.1534524113"><ele>9.27</ele><time>2011-12-07T11:31:29Z</time></trkpt><trkpt lat="52.0059543382" lon="-2.1531817596"><ele>10.23</ele><time>2011-12-07T11:31:49Z</time></trkpt><trkpt lat="52.0060757920" lon="-2.1529685240"><ele>9.75</ele><time>2011-12-07T11:32:07Z</time></trkpt><trkpt lat="52.0062458608" lon="-2.1528282948"><ele>8.31</ele><time>2011-12-07T11:32:25Z</time></trkpt><trkpt lat="52.0064393152" lon="-2.1526929270"><ele>9.27</ele><time>2011-12-07T11:32:43Z</time></trkpt><trkpt lat="52.0064606890" lon="-2.1526836231"><ele>6.87</ele><time>2011-12-07T11:32:45Z</time></trkpt><trkpt lat="52.0066439174" lon="-2.1525433939"><ele>7.35</ele><time>2011-12-07T11:33:04Z</time></trkpt><trkpt lat="52.0068080351" lon="-2.1523853950"><ele>6.39</ele><time>2011-12-07T11:33:22Z</time></trkpt><trkpt lat="52.0068279002" lon="-2.1523685474"><ele>8.31</ele><time>2011-12-07T11:33:24Z</time></trkpt><trkpt lat="52.0069043431" lon="-2.1523218602"><ele>5.42</ele><time>2011-12-07T11:33:32Z</time></trkpt><trkpt lat="52.0070842188" lon="-2.1521710698"><ele>6.39</ele><time>2011-12-07T11:33:52Z</time></trkpt><trkpt lat="52.0073060878" lon="-2.1520807128"><ele>5.91</ele><time>2011-12-07T11:34:13Z</time></trkpt><trkpt lat="52.0074861310" lon="-2.1519901045"><ele>6.39</ele><time>2011-12-07T11:34:31Z</time></trkpt><trkpt lat="52.0076930802" lon="-2.1518638730"><ele>5.42</ele><time>2011-12-07T11:34:51Z</time></trkpt><trkpt lat="52.0078466367" lon="-2.1517522261"><ele>6.87</ele><time>2011-12-07T11:35:08Z</time></trkpt><trkpt lat="52.0080431085" lon="-2.1516466979"><ele>6.87</ele><time>2011-12-07T11:35:27Z</time></trkpt><trkpt lat="52.0081244968" lon="-2.1515905391"><ele>6.87</ele><time>2011-12-07T11:35:37Z</time></trkpt><trkpt lat="52.0081460383" lon="-2.1515808161"><ele>7.35</ele><time>2011-12-07T11:35:39Z</time></trkpt><trkpt lat="52.0082135126" lon="-2.1515617892"><ele>6.87</ele><time>2011-12-07T11:35:47Z</time></trkpt><trkpt lat="52.0084003452" lon="-2.1514700912"><ele>4.94</ele><time>2011-12-07T11:36:06Z</time></trkpt><trkpt lat="52.0084904507" lon="-2.1514397487"><ele>8.31</ele><time>2011-12-07T11:36:15Z</time></trkpt><trkpt lat="52.0085181110" lon="-2.1514334623"><ele>5.91</ele><time>2011-12-07T11:36:18Z</time></trkpt><trkpt lat="52.0085441787" lon="-2.1514205541"><ele>7.35</ele><time>2011-12-07T11:36:21Z</time></trkpt><trkpt lat="52.0087195281" lon="-2.1513691731"><ele>7.35</ele><time>2011-12-07T11:36:41Z</time></trkpt><trkpt lat="52.0089054387" lon="-2.1513234079"><ele>6.39</ele><time>2011-12-07T11:37:00Z</time></trkpt><trkpt lat="52.0090667903" lon="-2.1512712725"><ele>6.87</ele><time>2011-12-07T11:37:17Z</time></trkpt><trkpt lat="52.0092085283" lon="-2.1512053069"><ele>5.91</ele><time>2011-12-07T11:37:33Z</time></trkpt><trkpt lat="52.0094136335" lon="-2.1511446219"><ele>6.39</ele><time>2011-12-07T11:37:52Z</time></trkpt><trkpt lat="52.0096383523" lon="-2.1510774828"><ele>5.91</ele><time>2011-12-07T11:38:13Z</time></trkpt><trkpt lat="52.0098252688" lon="-2.1510212403"><ele>6.87</ele><time>2011-12-07T11:38:33Z</time></trkpt><trkpt lat="52.0098322257" lon="-2.1510156244"><ele>7.35</ele><time>2011-12-07T11:38:34Z</time></trkpt><trkpt lat="52.0100466348" lon="-2.1509891376"><ele>6.39</ele><time>2011-12-07T11:38:54Z</time></trkpt><trkpt lat="52.0102823339" lon="-2.1509663388"><ele>6.39</ele><time>2011-12-07T11:39:16Z</time></trkpt><trkpt lat="52.0104933903" lon="-2.1509472281"><ele>5.91</ele><time>2011-12-07T11:39:38Z</time></trkpt><trkpt lat="52.0105948951" lon="-2.1509229206"><ele>5.42</ele><time>2011-12-07T11:39:57Z</time></trkpt><trkpt lat="52.0107622817" lon="-2.1510033868"><ele>5.42</ele><time>2011-12-07T11:40:12Z</time></trkpt><trkpt lat="52.0109968912" lon="-2.1512270998"><ele>4.46</ele><time>2011-12-07T11:40:34Z</time></trkpt><trkpt lat="52.0111617632" lon="-2.1513515711"><ele>7.83</ele><time>2011-12-07T11:40:53Z</time></trkpt><trkpt lat="52.0111711510" lon="-2.1513567679"><ele>7.83</ele><time>2011-12-07T11:40:54Z</time></trkpt><trkpt lat="52.0113600791" lon="-2.1515070554"><ele>8.79</ele><time>2011-12-07T11:41:14Z</time></trkpt><trkpt lat="52.0114790183" lon="-2.1515736077"><ele>8.79</ele><time>2011-12-07T11:41:30Z</time></trkpt><trkpt lat="52.0116599835" lon="-2.1517313551"><ele>9.75</ele><time>2011-12-07T11:41:50Z</time></trkpt><trkpt lat="52.0117131248" lon="-2.1517758630"><ele>9.75</ele><time>2011-12-07T11:42:03Z</time></trkpt><trkpt lat="52.0117525198" lon="-2.1518043615"><ele>9.75</ele><time>2011-12-07T11:42:10Z</time></trkpt><trkpt lat="52.0117758214" lon="-2.1518176887"><ele>8.31</ele><time>2011-12-07T11:42:13Z</time></trkpt><trkpt lat="52.0117821079" lon="-2.1518238913"><ele>11.67</ele><time>2011-12-07T11:42:18Z</time></trkpt><trkpt lat="52.0117821079" lon="-2.1518238913"><ele>10.23</ele><time>2011-12-07T11:42:21Z</time></trkpt><trkpt lat="52.0118248556" lon="-2.1518543176"><ele>9.75</ele><time>2011-12-07T11:42:30Z</time></trkpt><trkpt lat="52.0119960140" lon="-2.1519593429"><ele>11.19</ele><time>2011-12-07T11:42:46Z</time></trkpt><trkpt lat="52.0120155439" lon="-2.1519728377"><ele>10.71</ele><time>2011-12-07T11:42:48Z</time></trkpt><trkpt lat="52.0120936632" lon="-2.1520325169"><ele>10.23</ele><time>2011-12-07T11:42:57Z</time></trkpt><trkpt lat="52.0121716149" lon="-2.1520907711"><ele>11.67</ele><time>2011-12-07T11:43:05Z</time></trkpt><trkpt lat="52.0123757143" lon="-2.1522619296"><ele>10.71</ele><time>2011-12-07T11:43:26Z</time></trkpt><trkpt lat="52.0123944059" lon="-2.1522807050"><ele>9.75</ele><time>2011-12-07T11:43:28Z</time></trkpt><trkpt lat="52.0125572663" lon="-2.1524340101"><ele>11.19</ele><time>2011-12-07T11:43:47Z</time></trkpt><trkpt lat="52.0127264131" lon="-2.1525760833"><ele>10.71</ele><time>2011-12-07T11:44:07Z</time></trkpt><trkpt lat="52.0127512235" lon="-2.1525909193"><ele>12.15</ele><time>2011-12-07T11:44:10Z</time></trkpt><trkpt lat="52.0129683148" lon="-2.1527634189"><ele>11.67</ele><time>2011-12-07T11:44:34Z</time></trkpt><trkpt lat="52.0131104719" lon="-2.1528801788"><ele>12.63</ele><time>2011-12-07T11:44:55Z</time></trkpt><trkpt lat="52.0131551474" lon="-2.1528965235"><ele>12.15</ele><time>2011-12-07T11:45:22Z</time></trkpt><trkpt lat="52.0131559856" lon="-2.1529098507"><ele>13.12</ele><time>2011-12-07T11:45:43Z</time></trkpt><trkpt lat="52.0131559856" lon="-2.1529098507"><ele>12.63</ele><time>2011-12-07T11:46:05Z</time></trkpt><trkpt lat="52.0131552313" lon="-2.1529124491"><ele>12.63</ele><time>2011-12-07T11:46:28Z</time></trkpt><trkpt lat="52.0131552313" lon="-2.1529124491"><ele>13.12</ele><time>2011-12-07T11:46:53Z</time></trkpt><trkpt lat="52.0131429099" lon="-2.1529240999"><ele>13.12</ele><time>2011-12-07T11:47:22Z</time></trkpt><trkpt lat="52.0131429099" lon="-2.1529240999"><ele>18.88</ele><time>2011-12-07T11:47:25Z</time></trkpt><trkpt lat="52.0131429099" lon="-2.1529240999"><ele>13.12</ele><time>2011-12-07T11:47:26Z</time></trkpt><trkpt lat="52.0131429099" lon="-2.1529240999"><ele>13.12</ele><time>2011-12-07T11:47:27Z</time></trkpt><trkpt lat="52.0131429099" lon="-2.1529240999"><ele>11.67</ele><time>2011-12-07T11:47:48Z</time></trkpt><trkpt lat="52.0131606795" lon="-2.1529062465"><ele>12.15</ele><time>2011-12-07T11:48:05Z</time></trkpt><trkpt lat="52.0131688099" lon="-2.1529001277"><ele>12.15</ele><time>2011-12-07T11:48:23Z</time></trkpt><trkpt lat="52.0131688099" lon="-2.1529001277"><ele>12.15</ele><time>2011-12-07T11:48:47Z</time></trkpt><trkpt lat="52.0131681394" lon="-2.1528980322"><ele>12.15</ele><time>2011-12-07T11:49:06Z</time></trkpt><trkpt lat="52.0133208577" lon="-2.1528575476"><ele>12.15</ele><time>2011-12-07T11:49:27Z</time></trkpt><trkpt lat="52.0134827122" lon="-2.1528287139"><ele>12.15</ele><time>2011-12-07T11:49:46Z</time></trkpt><trkpt lat="52.0136186667" lon="-2.1527858824"><ele>13.12</ele><time>2011-12-07T11:50:03Z</time></trkpt><trkpt lat="52.0138269570" lon="-2.1526909154"><ele>12.15</ele><time>2011-12-07T11:50:22Z</time></trkpt><trkpt lat="52.0140038151" lon="-2.1526024863"><ele>12.63</ele><time>2011-12-07T11:50:42Z</time></trkpt><trkpt lat="52.0142131951" lon="-2.1525625885"><ele>13.12</ele><time>2011-12-07T11:51:03Z</time></trkpt><trkpt lat="52.0143400971" lon="-2.1525625046"><ele>12.15</ele><time>2011-12-07T11:51:25Z</time></trkpt><trkpt lat="52.0143400971" lon="-2.1525625046"><ele>12.15</ele><time>2011-12-07T11:51:51Z</time></trkpt><trkpt lat="52.0144188032" lon="-2.1525158174"><ele>11.67</ele><time>2011-12-07T11:52:01Z</time></trkpt><trkpt lat="52.0146168675" lon="-2.1524817031"><ele>11.67</ele><time>2011-12-07T11:52:21Z</time></trkpt><trkpt lat="52.0146376546" lon="-2.1524817031"><ele>12.15</ele><time>2011-12-07T11:52:23Z</time></trkpt><trkpt lat="52.0148784667" lon="-2.1524865646"><ele>11.67</ele><time>2011-12-07T11:52:44Z</time></trkpt><trkpt lat="52.0150800515" lon="-2.1524701361"><ele>11.19</ele><time>2011-12-07T11:53:03Z</time></trkpt><trkpt lat="52.0152088813" lon="-2.1524663642"><ele>11.67</ele><time>2011-12-07T11:53:14Z</time></trkpt><trkpt lat="52.0154339354" lon="-2.1524485946"><ele>11.19</ele><time>2011-12-07T11:53:36Z</time></trkpt><trkpt lat="52.0156640187" lon="-2.1524493489"><ele>12.15</ele><time>2011-12-07T11:53:56Z</time></trkpt><trkpt lat="52.0158614963" lon="-2.1524554677"><ele>12.15</ele><time>2011-12-07T11:54:17Z</time></trkpt><trkpt lat="52.0161339082" lon="-2.1524708904"><ele>11.19</ele><time>2011-12-07T11:54:39Z</time></trkpt><trkpt lat="52.0161587186" lon="-2.1524742432"><ele>11.67</ele><time>2011-12-07T11:54:41Z</time></trkpt><trkpt lat="52.0163636561" lon="-2.1524938568"><ele>11.19</ele><time>2011-12-07T11:54:59Z</time></trkpt><trkpt lat="52.0166249201" lon="-2.1524870675"><ele>11.19</ele><time>2011-12-07T11:55:24Z</time></trkpt><trkpt lat="52.0168300252" lon="-2.1525276359"><ele>11.19</ele><time>2011-12-07T11:55:44Z</time></trkpt><trkpt lat="52.0170731004" lon="-2.1526899934"><ele>11.19</ele><time>2011-12-07T11:56:05Z</time></trkpt><trkpt lat="52.0172033552" lon="-2.1528122015"><ele>11.19</ele><time>2011-12-07T11:56:19Z</time></trkpt><trkpt lat="52.0173877571" lon="-2.1529665124"><ele>11.67</ele><time>2011-12-07T11:56:39Z</time></trkpt><trkpt lat="52.0175558981" lon="-2.1531064902"><ele>11.67</ele><time>2011-12-07T11:56:58Z</time></trkpt><trkpt lat="52.0177247096" lon="-2.1532342304"><ele>12.15</ele><time>2011-12-07T11:57:16Z</time></trkpt><trkpt lat="52.0178162400" lon="-2.1532735415"><ele>12.15</ele><time>2011-12-07T11:57:24Z</time></trkpt><trkpt lat="52.0179835428" lon="-2.1533395071"><ele>12.15</ele><time>2011-12-07T11:57:40Z</time></trkpt><trkpt lat="52.0181468222" lon="-2.1534164529"><ele>12.15</ele><time>2011-12-07T11:57:56Z</time></trkpt><trkpt lat="52.0182308089" lon="-2.1534342226"><ele>12.15</ele><time>2011-12-07T11:58:04Z</time></trkpt><trkpt lat="52.0183737203" lon="-2.1534379944"><ele>12.63</ele><time>2011-12-07T11:58:18Z</time></trkpt><trkpt lat="52.0185486507" lon="-2.1534966677"><ele>12.15</ele><time>2011-12-07T11:58:35Z</time></trkpt><trkpt lat="52.0186834317" lon="-2.1535658184"><ele>12.63</ele><time>2011-12-07T11:58:50Z</time></trkpt><trkpt lat="52.0187421888" lon="-2.1536123380"><ele>12.63</ele><time>2011-12-07T11:59:02Z</time></trkpt><trkpt lat="52.0187948272" lon="-2.1536454465"><ele>13.12</ele><time>2011-12-07T11:59:14Z</time></trkpt><trkpt lat="52.0189206395" lon="-2.1536778845"><ele>13.12</ele><time>2011-12-07T11:59:27Z</time></trkpt><trkpt lat="52.0189809892" lon="-2.1536774654"><ele>12.63</ele><time>2011-12-07T11:59:35Z</time></trkpt><trkpt lat="52.0190542471" lon="-2.1536635514"><ele>12.15</ele><time>2011-12-07T11:59:41Z</time></trkpt><trkpt lat="52.0192990825" lon="-2.1537524834"><ele>12.63</ele><time>2011-12-07T12:00:00Z</time></trkpt><trkpt lat="52.0195143297" lon="-2.1538237296"><ele>12.63</ele><time>2011-12-07T12:00:19Z</time></trkpt><trkpt lat="52.0196004119" lon="-2.1538616158"><ele>13.12</ele><time>2011-12-07T12:00:28Z</time></trkpt><trkpt lat="52.0196201093" lon="-2.1538695786"><ele>12.63</ele><time>2011-12-07T12:00:30Z</time></trkpt><trkpt lat="52.0197933633" lon="-2.1539367177"><ele>13.60</ele><time>2011-12-07T12:00:46Z</time></trkpt><trkpt lat="52.0198136475" lon="-2.1539397351"><ele>13.12</ele><time>2011-12-07T12:00:48Z</time></trkpt><trkpt lat="52.0198668726" lon="-2.1539254859"><ele>13.12</ele><time>2011-12-07T12:00:55Z</time></trkpt><trkpt lat="52.0198714826" lon="-2.1538860071"><ele>12.63</ele><time>2011-12-07T12:01:05Z</time></trkpt><trkpt lat="52.0198884141" lon="-2.1539022680"><ele>13.12</ele><time>2011-12-07T12:01:07Z</time></trkpt><trkpt lat="52.0200353488" lon="-2.1540196985"><ele>13.60</ele><time>2011-12-07T12:01:21Z</time></trkpt><trkpt lat="52.0201015659" lon="-2.1540383063"><ele>13.12</ele><time>2011-12-07T12:01:26Z</time></trkpt><trkpt lat="52.0202765800" lon="-2.1541125700"><ele>13.60</ele><time>2011-12-07T12:01:43Z</time></trkpt><trkpt lat="52.0204417035" lon="-2.1541744284"><ele>14.08</ele><time>2011-12-07T12:01:59Z</time></trkpt><trkpt lat="52.0206043124" lon="-2.1542338561"><ele>14.08</ele><time>2011-12-07T12:02:14Z</time></trkpt><trkpt lat="52.0207629818" lon="-2.1542895120"><ele>15.04</ele><time>2011-12-07T12:02:29Z</time></trkpt><trkpt lat="52.0208787359" lon="-2.1543351933"><ele>14.56</ele><time>2011-12-07T12:02:39Z</time></trkpt><trkpt lat="52.0210645627" lon="-2.1543526277"><ele>15.52</ele><time>2011-12-07T12:02:56Z</time></trkpt><trkpt lat="52.0212601125" lon="-2.1543512028"><ele>16.48</ele><time>2011-12-07T12:03:13Z</time></trkpt><trkpt lat="52.0214168541" lon="-2.1543300804"><ele>17.92</ele><time>2011-12-07T12:03:28Z</time></trkpt><trkpt lat="52.0215077978" lon="-2.1543283202"><ele>17.92</ele><time>2011-12-07T12:03:37Z</time></trkpt><trkpt lat="52.0217061974" lon="-2.1542962175"><ele>18.40</ele><time>2011-12-07T12:03:55Z</time></trkpt><trkpt lat="52.0218937844" lon="-2.1542845666"><ele>18.88</ele><time>2011-12-07T12:04:14Z</time></trkpt><trkpt lat="52.0220344327" lon="-2.1542840637"><ele>20.32</ele><time>2011-12-07T12:04:30Z</time></trkpt><trkpt lat="52.0220807847" lon="-2.1542939544"><ele>19.84</ele><time>2011-12-07T12:04:35Z</time></trkpt><trkpt lat="52.0221755840" lon="-2.1542869974"><ele>20.81</ele><time>2011-12-07T12:04:45Z</time></trkpt><trkpt lat="52.0222268812" lon="-2.1542761847"><ele>20.81</ele><time>2011-12-07T12:04:50Z</time></trkpt><trkpt lat="52.0224508457" lon="-2.1542800404"><ele>19.84</ele><time>2011-12-07T12:05:13Z</time></trkpt><trkpt lat="52.0226040669" lon="-2.1543238778"><ele>19.84</ele><time>2011-12-07T12:05:30Z</time></trkpt><trkpt lat="52.0226264466" lon="-2.1543073654"><ele>21.77</ele><time>2011-12-07T12:05:39Z</time></trkpt><trkpt lat="52.0226574596" lon="-2.1542306710"><ele>20.32</ele><time>2011-12-07T12:05:55Z</time></trkpt><trkpt lat="52.0226574596" lon="-2.1541978139"><ele>21.29</ele><time>2011-12-07T12:06:03Z</time></trkpt><trkpt lat="52.0226702001" lon="-2.1541583352"><ele>19.36</ele><time>2011-12-07T12:06:09Z</time></trkpt><trkpt lat="52.0226556156" lon="-2.1539470274"><ele>18.40</ele><time>2011-12-07T12:06:26Z</time></trkpt><trkpt lat="52.0226401929" lon="-2.1536777169"><ele>17.92</ele><time>2011-12-07T12:06:40Z</time></trkpt><trkpt lat="52.0225643367" lon="-2.1535736974"><ele>17.44</ele><time>2011-12-07T12:06:54Z</time></trkpt><trkpt lat="52.0225282945" lon="-2.1535869408"><ele>18.88</ele><time>2011-12-07T12:07:10Z</time></trkpt><trkpt lat="52.0225500036" lon="-2.1535710152"><ele>17.92</ele><time>2011-12-07T12:07:15Z</time></trkpt><trkpt lat="52.0226013847" lon="-2.1535577718"><ele>16.96</ele><time>2011-12-07T12:07:19Z</time></trkpt><trkpt lat="52.0227756444" lon="-2.1534897946"><ele>19.36</ele><time>2011-12-07T12:07:37Z</time></trkpt><trkpt lat="52.0227848645" lon="-2.1534720249"><ele>19.36</ele><time>2011-12-07T12:07:57Z</time></trkpt><trkpt lat="52.0228869561" lon="-2.1534586139"><ele>18.88</ele><time>2011-12-07T12:08:12Z</time></trkpt><trkpt lat="52.0231492259" lon="-2.1534319595"><ele>20.32</ele><time>2011-12-07T12:08:32Z</time></trkpt><trkpt lat="52.0233707596" lon="-2.1533809975"><ele>20.81</ele><time>2011-12-07T12:08:50Z</time></trkpt><trkpt lat="52.0235450193" lon="-2.1533390041"><ele>22.73</ele><time>2011-12-07T12:09:04Z</time></trkpt><trkpt lat="52.0235613640" lon="-2.1533411834"><ele>21.77</ele><time>2011-12-07T12:09:08Z</time></trkpt><trkpt lat="52.0235853363" lon="-2.1533336397"><ele>22.73</ele><time>2011-12-07T12:09:10Z</time></trkpt><trkpt lat="52.0237752702" lon="-2.1533058956"><ele>22.25</ele><time>2011-12-07T12:09:27Z</time></trkpt><trkpt lat="52.0238202810" lon="-2.1532978490"><ele>21.29</ele><time>2011-12-07T12:09:31Z</time></trkpt><trkpt lat="52.0240025036" lon="-2.1533478051"><ele>21.77</ele><time>2011-12-07T12:09:47Z</time></trkpt><trkpt lat="52.0241137315" lon="-2.1534229070"><ele>19.36</ele><time>2011-12-07T12:10:01Z</time></trkpt><trkpt lat="52.0241753384" lon="-2.1534254216"><ele>20.32</ele><time>2011-12-07T12:10:07Z</time></trkpt><trkpt lat="52.0242742449" lon="-2.1534033772"><ele>20.32</ele><time>2011-12-07T12:10:18Z</time></trkpt><trkpt lat="52.0242894161" lon="-2.1533385850"><ele>19.36</ele><time>2011-12-07T12:10:33Z</time></trkpt><trkpt lat="52.0242875721" lon="-2.1533345617"><ele>19.36</ele><time>2011-12-07T12:10:53Z</time></trkpt><trkpt lat="52.0242903382" lon="-2.1533344779"><ele>18.88</ele><time>2011-12-07T12:11:13Z</time></trkpt><trkpt lat="52.0242874045" lon="-2.1533468831"><ele>18.40</ele><time>2011-12-07T12:11:34Z</time></trkpt><trkpt lat="52.0242806152" lon="-2.1533683408"><ele>16.96</ele><time>2011-12-07T12:11:36Z</time></trkpt><trkpt lat="52.0242806152" lon="-2.1533683408"><ele>19.36</ele><time>2011-12-07T12:11:38Z</time></trkpt><trkpt lat="52.0242806152" lon="-2.1533683408"><ele>20.81</ele><time>2011-12-07T12:11:59Z</time></trkpt><trkpt lat="52.0242975466" lon="-2.1533285268"><ele>19.36</ele><time>2011-12-07T12:12:17Z</time></trkpt><trkpt lat="52.0243182499" lon="-2.1532742120"><ele>19.36</ele><time>2011-12-07T12:12:23Z</time></trkpt><trkpt lat="52.0243268833" lon="-2.1531920694"><ele>18.40</ele><time>2011-12-07T12:12:28Z</time></trkpt><trkpt lat="52.0243496820" lon="-2.1530372556"><ele>18.40</ele><time>2011-12-07T12:12:37Z</time></trkpt><trkpt lat="52.0243502688" lon="-2.1527589764"><ele>17.44</ele><time>2011-12-07T12:12:53Z</time></trkpt><trkpt lat="52.0243739896" lon="-2.1523846406"><ele>16.96</ele><time>2011-12-07T12:13:12Z</time></trkpt><trkpt lat="52.0243805274" lon="-2.1523454972"><ele>16.96</ele><time>2011-12-07T12:13:16Z</time></trkpt><trkpt lat="52.0244252868" lon="-2.1522235405"><ele>17.44</ele><time>2011-12-07T12:13:28Z</time></trkpt><trkpt lat="52.0244426373" lon="-2.1521417331"><ele>16.96</ele><time>2011-12-07T12:13:42Z</time></trkpt><trkpt lat="52.0244266279" lon="-2.1520929504"><ele>16.96</ele><time>2011-12-07T12:13:52Z</time></trkpt><trkpt lat="52.0244273823" lon="-2.1520861611"><ele>16.48</ele><time>2011-12-07T12:13:56Z</time></trkpt><trkpt lat="52.0245096087" lon="-2.1517418325"><ele>15.52</ele><time>2011-12-07T12:14:13Z</time></trkpt><trkpt lat="52.0245739818" lon="-2.1514420118"><ele>15.52</ele><time>2011-12-07T12:14:31Z</time></trkpt><trkpt lat="52.0246476587" lon="-2.1512480546"><ele>15.52</ele><time>2011-12-07T12:14:47Z</time></trkpt><trkpt lat="52.0246812701" lon="-2.1511888783"><ele>15.52</ele><time>2011-12-07T12:14:52Z</time></trkpt><trkpt lat="52.0247717947" lon="-2.1509246808"><ele>16.00</ele><time>2011-12-07T12:15:11Z</time></trkpt><trkpt lat="52.0248556137" lon="-2.1507431287"><ele>15.52</ele><time>2011-12-07T12:15:26Z</time></trkpt><trkpt lat="52.0248940866" lon="-2.1506544482"><ele>15.52</ele><time>2011-12-07T12:15:44Z</time></trkpt><trkpt lat="52.0249529276" lon="-2.1505475789"><ele>15.04</ele><time>2011-12-07T12:15:58Z</time></trkpt><trkpt lat="52.0250112657" lon="-2.1504253708"><ele>15.52</ele><time>2011-12-07T12:16:13Z</time></trkpt><trkpt lat="52.0251053106" lon="-2.1502468362"><ele>15.52</ele><time>2011-12-07T12:16:29Z</time></trkpt><trkpt lat="52.0251390059" lon="-2.1501993947"><ele>15.52</ele><time>2011-12-07T12:16:43Z</time></trkpt><trkpt lat="52.0251390059" lon="-2.1501993947"><ele>15.04</ele><time>2011-12-07T12:16:44Z</time></trkpt><trkpt lat="52.0251541771" lon="-2.1501746681"><ele>15.04</ele><time>2011-12-07T12:16:47Z</time></trkpt><trkpt lat="52.0252240822" lon="-2.1500311699"><ele>15.04</ele><time>2011-12-07T12:17:03Z</time></trkpt><trkpt lat="52.0252240822" lon="-2.1500311699"><ele>15.04</ele><time>2011-12-07T12:17:21Z</time></trkpt><trkpt lat="52.0252266806" lon="-2.1500169206"><ele>15.52</ele><time>2011-12-07T12:17:45Z</time></trkpt><trkpt lat="52.0252272673" lon="-2.1499590017"><ele>15.52</ele><time>2011-12-07T12:18:06Z</time></trkpt><trkpt lat="52.0252263453" lon="-2.1499543916"><ele>15.04</ele><time>2011-12-07T12:18:24Z</time></trkpt><trkpt lat="52.0252853539" lon="-2.1498942934"><ele>15.04</ele><time>2011-12-07T12:18:37Z</time></trkpt><trkpt lat="52.0254112501" lon="-2.1498856600"><ele>14.56</ele><time>2011-12-07T12:18:52Z</time></trkpt><trkpt lat="52.0255158562" lon="-2.1498551499"><ele>15.04</ele><time>2011-12-07T12:19:04Z</time></trkpt><trkpt lat="52.0256409980" lon="-2.1498048585"><ele>16.48</ele><time>2011-12-07T12:19:17Z</time></trkpt><trkpt lat="52.0257249847" lon="-2.1497756895"><ele>16.00</ele><time>2011-12-07T12:19:29Z</time></trkpt><trkpt lat="52.0257352944" lon="-2.1497743484"><ele>15.52</ele><time>2011-12-07T12:19:30Z</time></trkpt><trkpt lat="52.0259024296" lon="-2.1497184411"><ele>16.48</ele><time>2011-12-07T12:19:45Z</time></trkpt><trkpt lat="52.0259409025" lon="-2.1497074608"><ele>16.00</ele><time>2011-12-07T12:20:02Z</time></trkpt><trkpt lat="52.0261266455" lon="-2.1496906132"><ele>16.48</ele><time>2011-12-07T12:20:19Z</time></trkpt><trkpt lat="52.0262221154" lon="-2.1496637911"><ele>15.04</ele><time>2011-12-07T12:20:28Z</time></trkpt><trkpt lat="52.0262425672" lon="-2.1496589296"><ele>15.04</ele><time>2011-12-07T12:20:30Z</time></trkpt><trkpt lat="52.0264210179" lon="-2.1496467758"><ele>16.96</ele><time>2011-12-07T12:20:44Z</time></trkpt><trkpt lat="52.0265481714" lon="-2.1496577561"><ele>16.48</ele><time>2011-12-07T12:20:57Z</time></trkpt><trkpt lat="52.0266087726" lon="-2.1496218815"><ele>16.96</ele><time>2011-12-07T12:21:10Z</time></trkpt><trkpt lat="52.0266669430" lon="-2.1495985799"><ele>16.96</ele><time>2011-12-07T12:21:15Z</time></trkpt><trkpt lat="52.0268137939" lon="-2.1495557483"><ele>18.88</ele><time>2011-12-07T12:21:28Z</time></trkpt><trkpt lat="52.0268796757" lon="-2.1495026071"><ele>17.44</ele><time>2011-12-07T12:21:43Z</time></trkpt><trkpt lat="52.0268820226" lon="-2.1494956501"><ele>16.48</ele><time>2011-12-07T12:22:01Z</time></trkpt><trkpt lat="52.0268805977" lon="-2.1495071333"><ele>18.40</ele><time>2011-12-07T12:22:22Z</time></trkpt><trkpt lat="52.0268967748" lon="-2.1495435107"><ele>17.92</ele><time>2011-12-07T12:22:44Z</time></trkpt><trkpt lat="52.0270163845" lon="-2.1495140065"><ele>16.96</ele><time>2011-12-07T12:22:57Z</time></trkpt><trkpt lat="52.0272053126" lon="-2.1494990028"><ele>17.44</ele><time>2011-12-07T12:23:12Z</time></trkpt><trkpt lat="52.0273695141" lon="-2.1494810656"><ele>16.48</ele><time>2011-12-07T12:23:27Z</time></trkpt><trkpt lat="52.0275358111" lon="-2.1494359709"><ele>17.44</ele><time>2011-12-07T12:23:42Z</time></trkpt><trkpt lat="52.0276537444" lon="-2.1493344661"><ele>16.00</ele><time>2011-12-07T12:23:56Z</time></trkpt><trkpt lat="52.0276594441" lon="-2.1493318677"><ele>16.48</ele><time>2011-12-07T12:24:18Z</time></trkpt><trkpt lat="52.0276602823" lon="-2.1493321192"><ele>16.48</ele><time>2011-12-07T12:24:42Z</time></trkpt><trkpt lat="52.0276847575" lon="-2.1493161935"><ele>16.00</ele><time>2011-12-07T12:24:55Z</time></trkpt><trkpt lat="52.0278542396" lon="-2.1492220648"><ele>15.52</ele><time>2011-12-07T12:25:12Z</time></trkpt><trkpt lat="52.0279968157" lon="-2.1491695940"><ele>16.96</ele><time>2011-12-07T12:25:30Z</time></trkpt><trkpt lat="52.0280181896" lon="-2.1491627209"><ele>15.52</ele><time>2011-12-07T12:25:48Z</time></trkpt><trkpt lat="52.0280500408" lon="-2.1491450351"><ele>16.00</ele><time>2011-12-07T12:25:50Z</time></trkpt><trkpt lat="52.0282822195" lon="-2.1490284428"><ele>16.48</ele><time>2011-12-07T12:26:04Z</time></trkpt><trkpt lat="52.0284688845" lon="-2.1489105932"><ele>16.48</ele><time>2011-12-07T12:26:21Z</time></trkpt><trkpt lat="52.0286044199" lon="-2.1488444600"><ele>16.96</ele><time>2011-12-07T12:26:35Z</time></trkpt><trkpt lat="52.0286556333" lon="-2.1488209907"><ele>16.96</ele><time>2011-12-07T12:26:50Z</time></trkpt><trkpt lat="52.0287205093" lon="-2.1487893909"><ele>17.92</ele><time>2011-12-07T12:26:56Z</time></trkpt><trkpt lat="52.0287889894" lon="-2.1487822663"><ele>17.44</ele><time>2011-12-07T12:27:02Z</time></trkpt><trkpt lat="52.0288143866" lon="-2.1487719566"><ele>16.96</ele><time>2011-12-07T12:27:04Z</time></trkpt><trkpt lat="52.0290477388" lon="-2.1486032289"><ele>17.92</ele><time>2011-12-07T12:27:24Z</time></trkpt><trkpt lat="52.0290616527" lon="-2.1485872194"><ele>17.92</ele><time>2011-12-07T12:27:26Z</time></trkpt><trkpt lat="52.0292214118" lon="-2.1484518517"><ele>18.40</ele><time>2011-12-07T12:27:42Z</time></trkpt><trkpt lat="52.0292715356" lon="-2.1484189108"><ele>18.40</ele><time>2011-12-07T12:27:47Z</time></trkpt><trkpt lat="52.0293059014" lon="-2.1483799350"><ele>18.40</ele><time>2011-12-07T12:27:51Z</time></trkpt><trkpt lat="52.0293451287" lon="-2.1483295597"><ele>17.92</ele><time>2011-12-07T12:27:55Z</time></trkpt><trkpt lat="52.0294556022" lon="-2.1481974609"><ele>17.92</ele><time>2011-12-07T12:28:07Z</time></trkpt><trkpt lat="52.0294737071" lon="-2.1480886638"><ele>17.44</ele><time>2011-12-07T12:28:22Z</time></trkpt><trkpt lat="52.0294452086" lon="-2.1478512883"><ele>17.44</ele><time>2011-12-07T12:28:35Z</time></trkpt><trkpt lat="52.0294403471" lon="-2.1478160843"><ele>16.96</ele><time>2011-12-07T12:28:37Z</time></trkpt><trkpt lat="52.0293649938" lon="-2.1476316825"><ele>16.48</ele><time>2011-12-07T12:28:50Z</time></trkpt><trkpt lat="52.0292800013" lon="-2.1473999228"><ele>16.00</ele><time>2011-12-07T12:29:04Z</time></trkpt><trkpt lat="52.0292382594" lon="-2.1472912095"><ele>16.00</ele><time>2011-12-07T12:29:11Z</time></trkpt><trkpt lat="52.0292087551" lon="-2.1472499706"><ele>16.48</ele><time>2011-12-07T12:29:15Z</time></trkpt><trkpt lat="52.0291203260" lon="-2.1470171213"><ele>16.00</ele><time>2011-12-07T12:29:30Z</time></trkpt><trkpt lat="52.0291203260" lon="-2.1470171213"><ele>16.48</ele><time>2011-12-07T12:29:34Z</time></trkpt><trkpt lat="52.0290589705" lon="-2.1467917319"><ele>15.52</ele><time>2011-12-07T12:29:49Z</time></trkpt><trkpt lat="52.0290552825" lon="-2.1467763931"><ele>15.52</ele><time>2011-12-07T12:29:50Z</time></trkpt><trkpt lat="52.0289370976" lon="-2.1465233434"><ele>15.04</ele><time>2011-12-07T12:30:07Z</time></trkpt><trkpt lat="52.0288190804" lon="-2.1462780889"><ele>14.56</ele><time>2011-12-07T12:30:23Z</time></trkpt><trkpt lat="52.0287013147" lon="-2.1460536215"><ele>14.56</ele><time>2011-12-07T12:30:39Z</time></trkpt><trkpt lat="52.0285827946" lon="-2.1458211076"><ele>14.08</ele><time>2011-12-07T12:30:55Z</time></trkpt><trkpt lat="52.0285392925" lon="-2.1457372885"><ele>14.08</ele><time>2011-12-07T12:31:01Z</time></trkpt><trkpt lat="52.0284012426" lon="-2.1454747673"><ele>13.60</ele><time>2011-12-07T12:31:19Z</time></trkpt><trkpt lat="52.0283351932" lon="-2.1453422494"><ele>13.12</ele><time>2011-12-07T12:31:28Z</time></trkpt><trkpt lat="52.0282187685" lon="-2.1450395789"><ele>12.15</ele><time>2011-12-07T12:31:47Z</time></trkpt><trkpt lat="52.0281439181" lon="-2.1448026225"><ele>11.19</ele><time>2011-12-07T12:32:04Z</time></trkpt><trkpt lat="52.0280966442" lon="-2.1446509939"><ele>10.71</ele><time>2011-12-07T12:32:18Z</time></trkpt><trkpt lat="52.0280762762" lon="-2.1445861179"><ele>10.71</ele><time>2011-12-07T12:32:30Z</time></trkpt><trkpt lat="52.0280673914" lon="-2.1445543505"><ele>10.23</ele><time>2011-12-07T12:32:32Z</time></trkpt><trkpt lat="52.0279697422" lon="-2.1443101857"><ele>10.23</ele><time>2011-12-07T12:32:48Z</time></trkpt><trkpt lat="52.0279235579" lon="-2.1441968624"><ele>9.75</ele><time>2011-12-07T12:32:57Z</time></trkpt><trkpt lat="52.0278456062" lon="-2.1439521108"><ele>10.23</ele><time>2011-12-07T12:33:13Z</time></trkpt><trkpt lat="52.0277826581" lon="-2.1437135618"><ele>9.75</ele><time>2011-12-07T12:33:27Z</time></trkpt><trkpt lat="52.0277702529" lon="-2.1436828841"><ele>9.75</ele><time>2011-12-07T12:33:29Z</time></trkpt><trkpt lat="52.0277199615" lon="-2.1435822174"><ele>10.23</ele><time>2011-12-07T12:33:36Z</time></trkpt><trkpt lat="52.0276916306" lon="-2.1434647869"><ele>9.27</ele><time>2011-12-07T12:33:43Z</time></trkpt><trkpt lat="52.0276620425" lon="-2.1433930378"><ele>9.75</ele><time>2011-12-07T12:33:48Z</time></trkpt><trkpt lat="52.0275765471" lon="-2.1431183629"><ele>9.75</ele><time>2011-12-07T12:34:05Z</time></trkpt><trkpt lat="52.0275135990" lon="-2.1429016907"><ele>9.27</ele><time>2011-12-07T12:34:19Z</time></trkpt><trkpt lat="52.0274773054" lon="-2.1426488087"><ele>9.27</ele><time>2011-12-07T12:34:35Z</time></trkpt><trkpt lat="52.0274265949" lon="-2.1424021292"><ele>9.27</ele><time>2011-12-07T12:34:52Z</time></trkpt><trkpt lat="52.0273979288" lon="-2.1422820166"><ele>8.79</ele><time>2011-12-07T12:35:02Z</time></trkpt><trkpt lat="52.0273543429" lon="-2.1420075092"><ele>9.27</ele><time>2011-12-07T12:35:20Z</time></trkpt><trkpt lat="52.0273404289" lon="-2.1419488359"><ele>8.79</ele><time>2011-12-07T12:35:24Z</time></trkpt><trkpt lat="52.0273013692" lon="-2.1416646894"><ele>8.79</ele><time>2011-12-07T12:35:41Z</time></trkpt><trkpt lat="52.0273074042" lon="-2.1414053533"><ele>9.27</ele><time>2011-12-07T12:35:56Z</time></trkpt><trkpt lat="52.0273934025" lon="-2.1412273217"><ele>9.75</ele><time>2011-12-07T12:36:08Z</time></trkpt><trkpt lat="52.0274496451" lon="-2.1411722526"><ele>9.75</ele><time>2011-12-07T12:36:19Z</time></trkpt></trkseg></trk></gpx>